<?xml version="1.0" encoding="UTF-8" standalone="no" ?>
<gpx xmlns="http://www.topografix.com/GPX/1/1" creator="MapSource 6.16.3" version="1.1" xmlns:xsi="http://www.w3.org/2001/XMLSchema-instance" xsi:schemaLocation="http://www.topografix.com/GPX/1/1 http://www.topografix.com/GPX/1/1/gpx.xsd">

  <metadata>
    <link href="http://www.garmin.com">
      <text>Garmin International</text>
    </link>
    <time>2016-09-07T05:25:17Z</time>
    <bounds maxlat="44.402167797088623" maxlon="11.246910095214844" minlat="44.368393421173096" minlon="11.174812316894531"/>
  </metadata>

  <trk>
    <name>ACTIVE LOG</name>
    <trkseg>
      <trkpt lat="44.393348693847656" lon="11.246545314788818">
        <ele>118</ele>
        <time>2004-03-14T07:41:16Z</time>
      </trkpt>
      <trkpt lat="44.393670558929443" lon="11.246631061658263">
        <ele>119</ele>
        <time>2004-03-14T07:41:35Z</time>
      </trkpt>
      <trkpt lat="44.393713474273682" lon="11.246609687805176">
        <ele>119</ele>
        <time>2004-03-14T07:41:37Z</time>
      </trkpt>
      <trkpt lat="44.393777763471007" lon="11.246416568756104">
        <ele>119</ele>
        <time>2004-03-14T07:41:44Z</time>
      </trkpt>
      <trkpt lat="44.393928134813905" lon="11.245772838592529">
        <ele>121</ele>
        <time>2004-03-14T07:42:04Z</time>
      </trkpt>
      <trkpt lat="44.394121170043945" lon="11.245043277740479">
        <ele>122</ele>
        <time>2004-03-14T07:42:26Z</time>
      </trkpt>
      <trkpt lat="44.394271373748779" lon="11.244635581970215">
        <ele>123</ele>
        <time>2004-03-14T07:42:43Z</time>
      </trkpt>
      <trkpt lat="44.394700527191162" lon="11.244850158691406">
        <ele>125</ele>
        <time>2004-03-14T07:43:02Z</time>
      </trkpt>
      <trkpt lat="44.395151138305664" lon="11.245043277740479">
        <ele>126</ele>
        <time>2004-03-14T07:43:22Z</time>
      </trkpt>
      <trkpt lat="44.395473003387451" lon="11.24500036239624">
        <ele>125</ele>
        <time>2004-03-14T07:43:38Z</time>
      </trkpt>
      <trkpt lat="44.395601665601134" lon="11.244163513183594">
        <ele>127</ele>
        <time>2004-03-14T07:44:02Z</time>
      </trkpt>
      <trkpt lat="44.395601665601134" lon="11.244120597839355">
        <ele>128</ele>
        <time>2004-03-14T07:44:04Z</time>
      </trkpt>
      <trkpt lat="44.395687580108643" lon="11.243691360577941">
        <ele>131</ele>
        <time>2004-03-14T07:44:20Z</time>
      </trkpt>
      <trkpt lat="44.395794868469238" lon="11.243176460266113">
        <ele>134</ele>
        <time>2004-03-14T07:44:40Z</time>
      </trkpt>
      <trkpt lat="44.395794868469238" lon="11.243112087249756">
        <ele>134</ele>
        <time>2004-03-14T07:44:43Z</time>
      </trkpt>
      <trkpt lat="44.395880699157715" lon="11.242811679840088">
        <ele>137</ele>
        <time>2004-03-14T07:44:59Z</time>
      </trkpt>
      <trkpt lat="44.395923614501953" lon="11.24272576533258">
        <ele>138</ele>
        <time>2004-03-14T07:45:04Z</time>
      </trkpt>
      <trkpt lat="44.396009361371398" lon="11.242532730102539">
        <ele>140</ele>
        <time>2004-03-14T07:45:16Z</time>
      </trkpt>
      <trkpt lat="44.396052360534668" lon="11.242403984069824">
        <ele>142</ele>
        <time>2004-03-14T07:45:23Z</time>
      </trkpt>
      <trkpt lat="44.396181106567383" lon="11.242060661315918">
        <ele>146</ele>
        <time>2004-03-14T07:45:41Z</time>
      </trkpt>
      <trkpt lat="44.396181106567383" lon="11.242039203643799">
        <ele>147</ele>
        <time>2004-03-14T07:45:43Z</time>
      </trkpt>
      <trkpt lat="44.396202564239502" lon="11.241695880889893">
        <ele>150</ele>
        <time>2004-03-14T07:45:59Z</time>
      </trkpt>
      <trkpt lat="44.396266937255859" lon="11.241288185119629">
        <ele>151</ele>
        <time>2004-03-14T07:46:17Z</time>
      </trkpt>
      <trkpt lat="44.396438598632813" lon="11.240944862365723">
        <ele>154</ele>
        <time>2004-03-14T07:46:35Z</time>
      </trkpt>
      <trkpt lat="44.396610260009766" lon="11.240687370300293">
        <ele>157</ele>
        <time>2004-03-14T07:46:52Z</time>
      </trkpt>
      <trkpt lat="44.39673900604248" lon="11.240408420562744">
        <ele>160</ele>
        <time>2004-03-14T07:47:11Z</time>
      </trkpt>
      <trkpt lat="44.396867835894227" lon="11.240193760022521">
        <ele>163</ele>
        <time>2004-03-14T07:47:26Z</time>
      </trkpt>
      <trkpt lat="44.39699649810791" lon="11.239914894104004">
        <ele>166</ele>
        <time>2004-03-14T07:47:45Z</time>
      </trkpt>
      <trkpt lat="44.397082328796387" lon="11.239721775054932">
        <ele>169</ele>
        <time>2004-03-14T07:47:58Z</time>
      </trkpt>
      <trkpt lat="44.397168159484863" lon="11.239485740661621">
        <ele>172</ele>
        <time>2004-03-14T07:48:11Z</time>
      </trkpt>
      <trkpt lat="44.397232532501221" lon="11.239292621612549">
        <ele>175</ele>
        <time>2004-03-14T07:48:29Z</time>
      </trkpt>
      <trkpt lat="44.39725399017334" lon="11.239099502563477">
        <ele>178</ele>
        <time>2004-03-14T07:48:43Z</time>
      </trkpt>
      <trkpt lat="44.397296905517578" lon="11.238863468170166">
        <ele>181</ele>
        <time>2004-03-14T07:48:58Z</time>
      </trkpt>
      <trkpt lat="44.397318363189697" lon="11.23875617980957">
        <ele>183</ele>
        <time>2004-03-14T07:49:07Z</time>
      </trkpt>
      <trkpt lat="44.397296905517578" lon="11.238713264465332">
        <ele>183</ele>
        <time>2004-03-14T07:49:09Z</time>
      </trkpt>
      <trkpt lat="44.397296905517578" lon="11.238498687744141">
        <ele>187</ele>
        <time>2004-03-14T07:49:25Z</time>
      </trkpt>
      <trkpt lat="44.397275364026427" lon="11.238241195678711">
        <ele>190</ele>
        <time>2004-03-14T07:49:45Z</time>
      </trkpt>
      <trkpt lat="44.39725399017334" lon="11.238155364990234">
        <ele>192</ele>
        <time>2004-03-14T07:49:52Z</time>
      </trkpt>
      <trkpt lat="44.39725399017334" lon="11.237940788269043">
        <ele>194</ele>
        <time>2004-03-14T07:50:08Z</time>
      </trkpt>
      <trkpt lat="44.39725399017334" lon="11.237919330596924">
        <ele>195</ele>
        <time>2004-03-14T07:50:10Z</time>
      </trkpt>
      <trkpt lat="44.39725399017334" lon="11.237576007843018">
        <ele>199</ele>
        <time>2004-03-14T07:50:33Z</time>
      </trkpt>
      <trkpt lat="44.39725399017334" lon="11.237447261810303">
        <ele>202</ele>
        <time>2004-03-14T07:50:42Z</time>
      </trkpt>
      <trkpt lat="44.397339820861816" lon="11.237254058942199">
        <ele>205</ele>
        <time>2004-03-14T07:50:57Z</time>
      </trkpt>
      <trkpt lat="44.39749002456665" lon="11.23701810836792">
        <ele>208</ele>
        <time>2004-03-14T07:51:16Z</time>
      </trkpt>
      <trkpt lat="44.397597312927246" lon="11.236846363171935">
        <ele>212</ele>
        <time>2004-03-14T07:51:28Z</time>
      </trkpt>
      <trkpt lat="44.397554397583008" lon="11.236567497253418">
        <ele>213</ele>
        <time>2004-03-14T07:51:44Z</time>
      </trkpt>
      <trkpt lat="44.39749002456665" lon="11.236352920532227">
        <ele>215</ele>
        <time>2004-03-14T07:51:56Z</time>
      </trkpt>
      <trkpt lat="44.397404193878174" lon="11.236116886138916">
        <ele>218</ele>
        <time>2004-03-14T07:52:10Z</time>
      </trkpt>
      <trkpt lat="44.397296905517578" lon="11.235837936401367">
        <ele>221</ele>
        <time>2004-03-14T07:52:29Z</time>
      </trkpt>
      <trkpt lat="44.397232532501221" lon="11.235666275024414">
        <ele>223</ele>
        <time>2004-03-14T07:52:42Z</time>
      </trkpt>
      <trkpt lat="44.397146701812744" lon="11.235408782958984">
        <ele>227</ele>
        <time>2004-03-14T07:53:00Z</time>
      </trkpt>
      <trkpt lat="44.397082328796387" lon="11.235215663909912">
        <ele>230</ele>
        <time>2004-03-14T07:53:14Z</time>
      </trkpt>
      <trkpt lat="44.396975040435791" lon="11.234872341156006">
        <ele>234</ele>
        <time>2004-03-14T07:53:34Z</time>
      </trkpt>
      <trkpt lat="44.396889209747314" lon="11.234571933746338">
        <ele>237</ele>
        <time>2004-03-14T07:53:50Z</time>
      </trkpt>
      <trkpt lat="44.396803379058838" lon="11.234164237976074">
        <ele>240</ele>
        <time>2004-03-14T07:54:10Z</time>
      </trkpt>
      <trkpt lat="44.396696090698242" lon="11.233799541369081">
        <ele>243</ele>
        <time>2004-03-14T07:54:28Z</time>
      </trkpt>
      <trkpt lat="44.396610260009766" lon="11.23326301574707">
        <ele>246</ele>
        <time>2004-03-14T07:54:51Z</time>
      </trkpt>
      <trkpt lat="44.396610260009766" lon="11.233198558911681">
        <ele>247</ele>
        <time>2004-03-14T07:54:54Z</time>
      </trkpt>
      <trkpt lat="44.396846294403076" lon="11.232941234484315">
        <ele>251</ele>
        <time>2004-03-14T07:55:13Z</time>
      </trkpt>
      <trkpt lat="44.39725399017334" lon="11.232748031616211">
        <ele>252</ele>
        <time>2004-03-14T07:55:41Z</time>
      </trkpt>
      <trkpt lat="44.397532939910889" lon="11.232640659436584">
        <ele>255</ele>
        <time>2004-03-14T07:56:02Z</time>
      </trkpt>
      <trkpt lat="44.397768974304199" lon="11.232447624206543">
        <ele>259</ele>
        <time>2004-03-14T07:56:22Z</time>
      </trkpt>
      <trkpt lat="44.397876262664795" lon="11.232297420501709">
        <ele>262</ele>
        <time>2004-03-14T07:56:33Z</time>
      </trkpt>
      <trkpt lat="44.39800500869751" lon="11.232039928436279">
        <ele>265</ele>
        <time>2004-03-14T07:56:49Z</time>
      </trkpt>
      <trkpt lat="44.398133838549256" lon="11.231675064191222">
        <ele>269</ele>
        <time>2004-03-14T07:57:10Z</time>
      </trkpt>
      <trkpt lat="44.398477077484131" lon="11.231374740600586">
        <ele>273</ele>
        <time>2004-03-14T07:57:36Z</time>
      </trkpt>
      <trkpt lat="44.398820400238037" lon="11.231203079223633">
        <ele>275</ele>
        <time>2004-03-14T07:57:57Z</time>
      </trkpt>
      <trkpt lat="44.399356758221984" lon="11.231245994567871">
        <ele>275</ele>
        <time>2004-03-14T07:58:21Z</time>
      </trkpt>
      <trkpt lat="44.400022029876709" lon="11.230966961011291">
        <ele>272</ele>
        <time>2004-03-14T07:58:38Z</time>
      </trkpt>
      <trkpt lat="44.400579929351807" lon="11.230494976043701">
        <ele>273</ele>
        <time>2004-03-14T07:58:55Z</time>
      </trkpt>
      <trkpt lat="44.401073539629579" lon="11.229615211486816">
        <ele>274</ele>
        <time>2004-03-14T07:59:19Z</time>
      </trkpt>
      <trkpt lat="44.401116371154785" lon="11.22901439666748">
        <ele>276</ele>
        <time>2004-03-14T07:59:35Z</time>
      </trkpt>
      <trkpt lat="44.401094913482666" lon="11.228628158569336">
        <ele>279</ele>
        <time>2004-03-14T07:59:46Z</time>
      </trkpt>
      <trkpt lat="44.401137828826904" lon="11.228177463635802">
        <ele>284</ele>
        <time>2004-03-14T07:59:59Z</time>
      </trkpt>
      <trkpt lat="44.401159286499023" lon="11.228091716766357">
        <ele>285</ele>
        <time>2004-03-14T08:00:01Z</time>
      </trkpt>
      <trkpt lat="44.401180660352111" lon="11.227383613586426">
        <ele>288</ele>
        <time>2004-03-14T08:00:20Z</time>
      </trkpt>
      <trkpt lat="44.4012451171875" lon="11.227126121520996">
        <ele>290</ele>
        <time>2004-03-14T08:00:28Z</time>
      </trkpt>
      <trkpt lat="44.401352405548096" lon="11.226611137390137">
        <ele>293</ele>
        <time>2004-03-14T08:00:48Z</time>
      </trkpt>
      <trkpt lat="44.401416778564453" lon="11.226203441619873">
        <ele>296</ele>
        <time>2004-03-14T08:01:05Z</time>
      </trkpt>
      <trkpt lat="44.401416778564453" lon="11.225538337603211">
        <ele>299</ele>
        <time>2004-03-14T08:01:29Z</time>
      </trkpt>
      <trkpt lat="44.401288032531738" lon="11.224980438128114">
        <ele>301</ele>
        <time>2004-03-14T08:01:52Z</time>
      </trkpt>
      <trkpt lat="44.401094913482666" lon="11.224443912506104">
        <ele>303</ele>
        <time>2004-03-14T08:02:15Z</time>
      </trkpt>
      <trkpt lat="44.400880336761475" lon="11.223757266998291">
        <ele>303</ele>
        <time>2004-03-14T08:02:37Z</time>
      </trkpt>
      <trkpt lat="44.400665760040283" lon="11.223006164655089">
        <ele>303</ele>
        <time>2004-03-14T08:02:57Z</time>
      </trkpt>
      <trkpt lat="44.400558471679688" lon="11.222341060638428">
        <ele>304</ele>
        <time>2004-03-14T08:03:19Z</time>
      </trkpt>
      <trkpt lat="44.40049409866333" lon="11.221868991851807">
        <ele>306</ele>
        <time>2004-03-14T08:03:37Z</time>
      </trkpt>
      <trkpt lat="44.400472640991211" lon="11.221718788146973">
        <ele>309</ele>
        <time>2004-03-14T08:03:53Z</time>
      </trkpt>
      <trkpt lat="44.400558471679688" lon="11.221182262524962">
        <ele>313</ele>
        <time>2004-03-14T08:04:09Z</time>
      </trkpt>
      <trkpt lat="44.400558471679688" lon="11.221117973327637">
        <ele>313</ele>
        <time>2004-03-14T08:04:12Z</time>
      </trkpt>
      <trkpt lat="44.400601387023926" lon="11.220881938934326">
        <ele>316</ele>
        <time>2004-03-14T08:04:24Z</time>
      </trkpt>
      <trkpt lat="44.400622760877013" lon="11.220602989196777">
        <ele>320</ele>
        <time>2004-03-14T08:04:39Z</time>
      </trkpt>
      <trkpt lat="44.400644302368164" lon="11.220581531524658">
        <ele>320</ele>
        <time>2004-03-14T08:04:40Z</time>
      </trkpt>
      <trkpt lat="44.400644302368164" lon="11.220517158508301">
        <ele>320</ele>
        <time>2004-03-14T08:04:45Z</time>
      </trkpt>
      <trkpt lat="44.400730133056641" lon="11.22028112411499">
        <ele>323</ele>
        <time>2004-03-14T08:05:01Z</time>
      </trkpt>
      <trkpt lat="44.400772964581847" lon="11.220173835754395">
        <ele>326</ele>
        <time>2004-03-14T08:05:08Z</time>
      </trkpt>
      <trkpt lat="44.400858879089355" lon="11.219937801361084">
        <ele>328</ele>
        <time>2004-03-14T08:05:20Z</time>
      </trkpt>
      <trkpt lat="44.400901794433594" lon="11.21978759765625">
        <ele>330</ele>
        <time>2004-03-14T08:05:30Z</time>
      </trkpt>
      <trkpt lat="44.400880336761475" lon="11.219573020935059">
        <ele>332</ele>
        <time>2004-03-14T08:05:39Z</time>
      </trkpt>
      <trkpt lat="44.400880336761475" lon="11.219422817230225">
        <ele>335</ele>
        <time>2004-03-14T08:05:47Z</time>
      </trkpt>
      <trkpt lat="44.400858879089355" lon="11.219143867492676">
        <ele>338</ele>
        <time>2004-03-14T08:06:02Z</time>
      </trkpt>
      <trkpt lat="44.400858879089355" lon="11.219101035967469">
        <ele>339</ele>
        <time>2004-03-14T08:06:06Z</time>
      </trkpt>
      <trkpt lat="44.401051998138428" lon="11.218907833099365">
        <ele>342</ele>
        <time>2004-03-14T08:06:23Z</time>
      </trkpt>
      <trkpt lat="44.4012451171875" lon="11.218693340197206">
        <ele>346</ele>
        <time>2004-03-14T08:06:40Z</time>
      </trkpt>
      <trkpt lat="44.401395320892334" lon="11.218328475952148">
        <ele>349</ele>
        <time>2004-03-14T08:07:01Z</time>
      </trkpt>
      <trkpt lat="44.401438236236572" lon="11.21802806854248">
        <ele>352</ele>
        <time>2004-03-14T08:07:17Z</time>
      </trkpt>
      <trkpt lat="44.401438236236572" lon="11.217985237017274">
        <ele>352</ele>
        <time>2004-03-14T08:07:19Z</time>
      </trkpt>
      <trkpt lat="44.401459693908691" lon="11.217942237854004">
        <ele>353</ele>
        <time>2004-03-14T08:07:21Z</time>
      </trkpt>
      <trkpt lat="44.401481235399842" lon="11.217813491821289">
        <ele>355</ele>
        <time>2004-03-14T08:07:27Z</time>
      </trkpt>
      <trkpt lat="44.401524066925049" lon="11.21757754124701">
        <ele>358</ele>
        <time>2004-03-14T08:07:40Z</time>
      </trkpt>
      <trkpt lat="44.401566982269287" lon="11.217555999755859">
        <ele>359</ele>
        <time>2004-03-14T08:07:44Z</time>
      </trkpt>
      <trkpt lat="44.401652812957764" lon="11.217491626739502">
        <ele>361</ele>
        <time>2004-03-14T08:07:52Z</time>
      </trkpt>
      <trkpt lat="44.401888763532043" lon="11.217341423034668">
        <ele>363</ele>
        <time>2004-03-14T08:08:11Z</time>
      </trkpt>
      <trkpt lat="44.402060508728027" lon="11.217212677001953">
        <ele>367</ele>
        <time>2004-03-14T08:08:27Z</time>
      </trkpt>
      <trkpt lat="44.402167797088623" lon="11.21678352355957">
        <ele>369</ele>
        <time>2004-03-14T08:08:47Z</time>
      </trkpt>
      <trkpt lat="44.401974678039551" lon="11.216418659314513">
        <ele>371</ele>
        <time>2004-03-14T08:09:09Z</time>
      </trkpt>
      <trkpt lat="44.401845932006836" lon="11.216139793395996">
        <ele>374</ele>
        <time>2004-03-14T08:09:24Z</time>
      </trkpt>
      <trkpt lat="44.401824474334717" lon="11.21605396270752">
        <ele>375</ele>
        <time>2004-03-14T08:09:29Z</time>
      </trkpt>
      <trkpt lat="44.401781558990479" lon="11.215753639116883">
        <ele>378</ele>
        <time>2004-03-14T08:09:43Z</time>
      </trkpt>
      <trkpt lat="44.401717185974121" lon="11.215367317199707">
        <ele>381</ele>
        <time>2004-03-14T08:10:02Z</time>
      </trkpt>
      <trkpt lat="44.401695728302002" lon="11.215152740478516">
        <ele>384</ele>
        <time>2004-03-14T08:10:14Z</time>
      </trkpt>
      <trkpt lat="44.401609897613525" lon="11.214766502380371">
        <ele>387</ele>
        <time>2004-03-14T08:10:35Z</time>
      </trkpt>
      <trkpt lat="44.401459693908691" lon="11.214423179626465">
        <ele>388</ele>
        <time>2004-03-14T08:10:55Z</time>
      </trkpt>
      <trkpt lat="44.401330864056945" lon="11.213994026184082">
        <ele>389</ele>
        <time>2004-03-14T08:11:16Z</time>
      </trkpt>
      <trkpt lat="44.401330864056945" lon="11.213414669036865">
        <ele>389</ele>
        <time>2004-03-14T08:11:35Z</time>
      </trkpt>
      <trkpt lat="44.401395320892334" lon="11.212835311889648">
        <ele>391</ele>
        <time>2004-03-14T08:11:53Z</time>
      </trkpt>
      <trkpt lat="44.401438236236572" lon="11.212406158447266">
        <ele>393</ele>
        <time>2004-03-14T08:12:11Z</time>
      </trkpt>
      <trkpt lat="44.401416778564453" lon="11.212148666381836">
        <ele>396</ele>
        <time>2004-03-14T08:12:23Z</time>
      </trkpt>
      <trkpt lat="44.401330864056945" lon="11.211848258972168">
        <ele>400</ele>
        <time>2004-03-14T08:12:39Z</time>
      </trkpt>
      <trkpt lat="44.401137828826904" lon="11.211633682250977">
        <ele>402</ele>
        <time>2004-03-14T08:12:58Z</time>
      </trkpt>
      <trkpt lat="44.401094913482666" lon="11.211612224578857">
        <ele>403</ele>
        <time>2004-03-14T08:13:02Z</time>
      </trkpt>
      <trkpt lat="44.400880336761475" lon="11.211504936218262">
        <ele>407</ele>
        <time>2004-03-14T08:13:21Z</time>
      </trkpt>
      <trkpt lat="44.400622760877013" lon="11.211397564038634">
        <ele>410</ele>
        <time>2004-03-14T08:13:42Z</time>
      </trkpt>
      <trkpt lat="44.400343894958496" lon="11.211204528808594">
        <ele>413</ele>
        <time>2004-03-14T08:14:04Z</time>
      </trkpt>
      <trkpt lat="44.400022029876709" lon="11.210753917694092">
        <ele>412</ele>
        <time>2004-03-14T08:14:27Z</time>
      </trkpt>
      <trkpt lat="44.399871826171875" lon="11.210153102874756">
        <ele>412</ele>
        <time>2004-03-14T08:14:45Z</time>
      </trkpt>
      <trkpt lat="44.399785995483398" lon="11.20955228805542">
        <ele>413</ele>
        <time>2004-03-14T08:15:05Z</time>
      </trkpt>
      <trkpt lat="44.399850368499756" lon="11.209144592285156">
        <ele>417</ele>
        <time>2004-03-14T08:15:22Z</time>
      </trkpt>
      <trkpt lat="44.400043487548828" lon="11.208779811859131">
        <ele>418</ele>
        <time>2004-03-14T08:15:43Z</time>
      </trkpt>
      <trkpt lat="44.400322437286377" lon="11.208436489105225">
        <ele>421</ele>
        <time>2004-03-14T08:16:06Z</time>
      </trkpt>
      <trkpt lat="44.400558471679688" lon="11.208114624023438">
        <ele>423</ele>
        <time>2004-03-14T08:16:25Z</time>
      </trkpt>
      <trkpt lat="44.400644302368164" lon="11.20779275894165">
        <ele>426</ele>
        <time>2004-03-14T08:16:38Z</time>
      </trkpt>
      <trkpt lat="44.400708675384521" lon="11.207513809204102">
        <ele>427</ele>
        <time>2004-03-14T08:16:52Z</time>
      </trkpt>
      <trkpt lat="44.400730133056641" lon="11.207363605499268">
        <ele>429</ele>
        <time>2004-03-14T08:17:03Z</time>
      </trkpt>
      <trkpt lat="44.400815963745117" lon="11.206998825073242">
        <ele>431</ele>
        <time>2004-03-14T08:17:20Z</time>
      </trkpt>
      <trkpt lat="44.400858879089355" lon="11.206827163696289">
        <ele>433</ele>
        <time>2004-03-14T08:17:30Z</time>
      </trkpt>
      <trkpt lat="44.400472640991211" lon="11.206784164533019">
        <ele>435</ele>
        <time>2004-03-14T08:17:50Z</time>
      </trkpt>
      <trkpt lat="44.399979114532471" lon="11.206784164533019">
        <ele>437</ele>
        <time>2004-03-14T08:18:14Z</time>
      </trkpt>
      <trkpt lat="44.399549961090088" lon="11.206612586975098">
        <ele>439</ele>
        <time>2004-03-14T08:18:36Z</time>
      </trkpt>
      <trkpt lat="44.399228096008301" lon="11.206398010253906">
        <ele>442</ele>
        <time>2004-03-14T08:18:55Z</time>
      </trkpt>
      <trkpt lat="44.398970603942871" lon="11.206140518188477">
        <ele>443</ele>
        <time>2004-03-14T08:19:11Z</time>
      </trkpt>
      <trkpt lat="44.398734569549561" lon="11.20579719543457">
        <ele>447</ele>
        <time>2004-03-14T08:19:29Z</time>
      </trkpt>
      <trkpt lat="44.39849853515625" lon="11.20530366897583">
        <ele>448</ele>
        <time>2004-03-14T08:19:48Z</time>
      </trkpt>
      <trkpt lat="44.398391162976623" lon="11.204938888549805">
        <ele>449</ele>
        <time>2004-03-14T08:20:01Z</time>
      </trkpt>
      <trkpt lat="44.398219585418701" lon="11.204617023468018">
        <ele>452</ele>
        <time>2004-03-14T08:20:19Z</time>
      </trkpt>
      <trkpt lat="44.397940635681152" lon="11.204552734270692">
        <ele>455</ele>
        <time>2004-03-14T08:20:36Z</time>
      </trkpt>
      <trkpt lat="44.397683059796691" lon="11.204402362927794">
        <ele>456</ele>
        <time>2004-03-14T08:20:53Z</time>
      </trkpt>
      <trkpt lat="44.397597312927246" lon="11.204466819763184">
        <ele>458</ele>
        <time>2004-03-14T08:21:05Z</time>
      </trkpt>
      <trkpt lat="44.39774751663208" lon="11.204724311828613">
        <ele>460</ele>
        <time>2004-03-14T08:21:21Z</time>
      </trkpt>
      <trkpt lat="44.397876262664795" lon="11.20506763458252">
        <ele>463</ele>
        <time>2004-03-14T08:21:38Z</time>
      </trkpt>
      <trkpt lat="44.397704601287842" lon="11.205153465270996">
        <ele>465</ele>
        <time>2004-03-14T08:21:52Z</time>
      </trkpt>
      <trkpt lat="44.397597312927246" lon="11.204895973205566">
        <ele>467</ele>
        <time>2004-03-14T08:22:05Z</time>
      </trkpt>
      <trkpt lat="44.397339820861816" lon="11.204767227172852">
        <ele>471</ele>
        <time>2004-03-14T08:22:24Z</time>
      </trkpt>
      <trkpt lat="44.397039413452148" lon="11.204724311828613">
        <ele>474</ele>
        <time>2004-03-14T08:22:44Z</time>
      </trkpt>
      <trkpt lat="44.396781921386719" lon="11.204659938812256">
        <ele>477</ele>
        <time>2004-03-14T08:23:00Z</time>
      </trkpt>
      <trkpt lat="44.39650297164917" lon="11.204531192779541">
        <ele>480</ele>
        <time>2004-03-14T08:23:18Z</time>
      </trkpt>
      <trkpt lat="44.396224021911621" lon="11.20431661605835">
        <ele>484</ele>
        <time>2004-03-14T08:23:40Z</time>
      </trkpt>
      <trkpt lat="44.395945072174072" lon="11.204102039337158">
        <ele>487</ele>
        <time>2004-03-14T08:23:58Z</time>
      </trkpt>
      <trkpt lat="44.395923614501953" lon="11.204080581665039">
        <ele>488</ele>
        <time>2004-03-14T08:24:01Z</time>
      </trkpt>
      <trkpt lat="44.395709037780762" lon="11.203908920288086">
        <ele>490</ele>
        <time>2004-03-14T08:24:17Z</time>
      </trkpt>
      <trkpt lat="44.395473003387451" lon="11.203715801239014">
        <ele>493</ele>
        <time>2004-03-14T08:24:36Z</time>
      </trkpt>
      <trkpt lat="44.39525842666626" lon="11.203501224517822">
        <ele>496</ele>
        <time>2004-03-14T08:24:53Z</time>
      </trkpt>
      <trkpt lat="44.39500093460083" lon="11.203372478485107">
        <ele>500</ele>
        <time>2004-03-14T08:25:12Z</time>
      </trkpt>
      <trkpt lat="44.394679069519043" lon="11.203415393829346">
        <ele>502</ele>
        <time>2004-03-14T08:25:34Z</time>
      </trkpt>
      <trkpt lat="44.394571781158447" lon="11.203372478485107">
        <ele>521</ele>
        <time>2003-01-19T09:03:49Z</time>
      </trkpt>
      <trkpt lat="44.394486034289002" lon="11.20330810546875">
        <ele>523</ele>
        <time>2003-01-19T09:03:53Z</time>
      </trkpt>
      <trkpt lat="44.394400119781494" lon="11.203179359436035">
        <ele>529</ele>
        <time>2003-01-19T09:10:56Z</time>
      </trkpt>
      <trkpt lat="44.394292831420898" lon="11.202986240386963">
        <ele>525</ele>
        <time>2003-01-19T09:04:11Z</time>
      </trkpt>
      <trkpt lat="44.394185459241271" lon="11.20255708694458">
        <ele>525</ele>
        <time>2003-01-19T09:04:32Z</time>
      </trkpt>
      <trkpt lat="44.394142627716064" lon="11.202127933502197">
        <ele>523</ele>
        <time>2003-01-19T09:04:43Z</time>
      </trkpt>
      <trkpt lat="44.394078338518739" lon="11.201913440600038">
        <ele>521</ele>
        <time>2003-01-19T09:04:47Z</time>
      </trkpt>
      <trkpt lat="44.39401388168335" lon="11.201784610748291">
        <ele>521</ele>
        <time>2003-01-19T09:04:49Z</time>
      </trkpt>
      <trkpt lat="44.393906593322754" lon="11.2015700340271">
        <ele>518</ele>
        <time>2003-01-19T09:04:52Z</time>
      </trkpt>
      <trkpt lat="44.393799304962158" lon="11.20135554112494">
        <ele>517</ele>
        <time>2003-01-19T09:04:55Z</time>
      </trkpt>
      <trkpt lat="44.393606185913086" lon="11.20081901550293">
        <ele>514</ele>
        <time>2003-01-19T09:05:02Z</time>
      </trkpt>
      <trkpt lat="44.393541812896729" lon="11.2005615234375">
        <ele>514</ele>
        <time>2003-01-19T09:05:05Z</time>
      </trkpt>
      <trkpt lat="44.39349889755249" lon="11.200432777404785">
        <ele>513</ele>
        <time>2003-01-19T09:05:07Z</time>
      </trkpt>
      <trkpt lat="44.393477439880371" lon="11.20030403137207">
        <ele>513</ele>
        <time>2003-01-19T09:05:11Z</time>
      </trkpt>
      <trkpt lat="44.393455982208252" lon="11.200196659192443">
        <ele>511</ele>
        <time>2003-01-19T09:22:10Z</time>
      </trkpt>
      <trkpt lat="44.393112659454346" lon="11.199853420257568">
        <ele>509</ele>
        <time>2003-01-19T09:22:26Z</time>
      </trkpt>
      <trkpt lat="44.392769336700439" lon="11.199445724487305">
        <ele>509</ele>
        <time>2003-01-19T09:22:44Z</time>
      </trkpt>
      <trkpt lat="44.392576217651367" lon="11.199123859405518">
        <ele>510</ele>
        <time>2003-01-19T09:23:01Z</time>
      </trkpt>
      <trkpt lat="44.392361640930176" lon="11.198737621307373">
        <ele>508</ele>
        <time>2003-01-19T09:23:18Z</time>
      </trkpt>
      <trkpt lat="44.392189979553223" lon="11.198458671569824">
        <ele>505</ele>
        <time>2003-01-19T09:23:27Z</time>
      </trkpt>
      <trkpt lat="44.392168521881104" lon="11.198415840044618">
        <ele>504</ele>
        <time>2003-01-19T09:23:28Z</time>
      </trkpt>
      <trkpt lat="44.391932487487793" lon="11.197986602783203">
        <ele>501</ele>
        <time>2003-01-19T09:23:36Z</time>
      </trkpt>
      <trkpt lat="44.391524791717529" lon="11.197300041094422">
        <ele>498</ele>
        <time>2003-01-19T09:23:50Z</time>
      </trkpt>
      <trkpt lat="44.39150333404541" lon="11.197235584259033">
        <ele>498</ele>
        <time>2003-01-19T09:23:51Z</time>
      </trkpt>
      <trkpt lat="44.391310214996338" lon="11.196913719177246">
        <ele>496</ele>
        <time>2003-01-19T09:23:58Z</time>
      </trkpt>
      <trkpt lat="44.391245758160949" lon="11.19680643081665">
        <ele>495</ele>
        <time>2003-01-19T09:24:00Z</time>
      </trkpt>
      <trkpt lat="44.391160011291504" lon="11.19657039642334">
        <ele>492</ele>
        <time>2003-01-19T09:24:04Z</time>
      </trkpt>
      <trkpt lat="44.391160011291504" lon="11.196506023406982">
        <ele>491</ele>
        <time>2003-01-19T09:24:05Z</time>
      </trkpt>
      <trkpt lat="44.391138637438416" lon="11.196355819702148">
        <ele>491</ele>
        <time>2003-01-19T09:24:07Z</time>
      </trkpt>
      <trkpt lat="44.391117095947266" lon="11.196012496948242">
        <ele>490</ele>
        <time>2003-01-19T09:24:11Z</time>
      </trkpt>
      <trkpt lat="44.391031265258789" lon="11.195669174194336">
        <ele>488</ele>
        <time>2003-01-19T09:24:15Z</time>
      </trkpt>
      <trkpt lat="44.390881061553955" lon="11.195325935259461">
        <ele>474</ele>
        <time>2004-03-14T08:28:10Z</time>
      </trkpt>
      <trkpt lat="44.390645027160645" lon="11.194918239489198">
        <ele>474</ele>
        <time>2004-03-14T08:28:24Z</time>
      </trkpt>
      <trkpt lat="44.3902587890625" lon="11.194252967834473">
        <ele>475</ele>
        <time>2004-03-14T08:28:48Z</time>
      </trkpt>
      <trkpt lat="44.389851093292236" lon="11.193802440539002">
        <ele>477</ele>
        <time>2004-03-14T08:29:07Z</time>
      </trkpt>
      <trkpt lat="44.389464939013124" lon="11.193480491638184">
        <ele>480</ele>
        <time>2004-03-14T08:29:25Z</time>
      </trkpt>
      <trkpt lat="44.388971328735352" lon="11.193137168884277">
        <ele>482</ele>
        <time>2004-03-14T08:29:45Z</time>
      </trkpt>
      <trkpt lat="44.388735294342041" lon="11.192922592163086">
        <ele>485</ele>
        <time>2004-03-14T08:30:01Z</time>
      </trkpt>
      <trkpt lat="44.388563632965088" lon="11.192643558606505">
        <ele>487</ele>
        <time>2004-03-14T08:30:17Z</time>
      </trkpt>
      <trkpt lat="44.388434886932373" lon="11.192450523376465">
        <ele>490</ele>
        <time>2004-03-14T08:30:26Z</time>
      </trkpt>
      <trkpt lat="44.388413429260254" lon="11.192429065704346">
        <ele>490</ele>
        <time>2004-03-14T08:30:27Z</time>
      </trkpt>
      <trkpt lat="44.388370513916016" lon="11.192343235015869">
        <ele>491</ele>
        <time>2004-03-14T08:30:30Z</time>
      </trkpt>
      <trkpt lat="44.38826322555542" lon="11.192171573638916">
        <ele>495</ele>
        <time>2004-03-14T08:30:39Z</time>
      </trkpt>
      <trkpt lat="44.388198936358094" lon="11.192085659131408">
        <ele>496</ele>
        <time>2004-03-14T08:30:45Z</time>
      </trkpt>
      <trkpt lat="44.388113021850586" lon="11.191828334704041">
        <ele>499</ele>
        <time>2004-03-14T08:30:59Z</time>
      </trkpt>
      <trkpt lat="44.388070106506348" lon="11.191613674163818">
        <ele>502</ele>
        <time>2004-03-14T08:31:10Z</time>
      </trkpt>
      <trkpt lat="44.388048565015197" lon="11.191163063049316">
        <ele>504</ele>
        <time>2004-03-14T08:31:32Z</time>
      </trkpt>
      <trkpt lat="44.388134479522705" lon="11.190841197967529">
        <ele>504</ele>
        <time>2004-03-14T08:31:46Z</time>
      </trkpt>
      <trkpt lat="44.38849925994873" lon="11.19032621383667">
        <ele>501</ele>
        <time>2004-03-14T08:31:57Z</time>
      </trkpt>
      <trkpt lat="44.388756835833192" lon="11.189703941345215">
        <ele>501</ele>
        <time>2004-03-14T08:32:06Z</time>
      </trkpt>
      <trkpt lat="44.388778209686279" lon="11.189124584197998">
        <ele>501</ele>
        <time>2004-03-14T08:32:18Z</time>
      </trkpt>
      <trkpt lat="44.388778209686279" lon="11.189017295837402">
        <ele>501</ele>
        <time>2004-03-14T08:32:20Z</time>
      </trkpt>
      <trkpt lat="44.388542175292969" lon="11.188437938690186">
        <ele>500</ele>
        <time>2004-03-14T08:32:29Z</time>
      </trkpt>
      <trkpt lat="44.388370513916016" lon="11.188094615936279">
        <ele>500</ele>
        <time>2004-03-14T08:32:35Z</time>
      </trkpt>
      <trkpt lat="44.388327598571777" lon="11.187858581542969">
        <ele>500</ele>
        <time>2004-03-14T08:32:39Z</time>
      </trkpt>
      <trkpt lat="44.38849925994873" lon="11.187171936035156">
        <ele>501</ele>
        <time>2004-03-14T08:32:55Z</time>
      </trkpt>
      <trkpt lat="44.388606464490294" lon="11.18682861328125">
        <ele>504</ele>
        <time>2004-03-14T08:33:09Z</time>
      </trkpt>
      <trkpt lat="44.388606464490294" lon="11.186785697937012">
        <ele>506</ele>
        <time>2004-03-14T08:33:12Z</time>
      </trkpt>
      <trkpt lat="44.38852071762085" lon="11.186592578887939">
        <ele>510</ele>
        <time>2004-03-14T08:33:23Z</time>
      </trkpt>
      <trkpt lat="44.388477802276611" lon="11.186292171478271">
        <ele>513</ele>
        <time>2004-03-14T08:33:39Z</time>
      </trkpt>
      <trkpt lat="44.388477802276611" lon="11.185884475708008">
        <ele>516</ele>
        <time>2004-03-14T08:33:57Z</time>
      </trkpt>
      <trkpt lat="44.388434886932373" lon="11.185648441314697">
        <ele>519</ele>
        <time>2004-03-14T08:34:08Z</time>
      </trkpt>
      <trkpt lat="44.388413429260254" lon="11.18558406829834">
        <ele>520</ele>
        <time>2004-03-14T08:34:10Z</time>
      </trkpt>
      <trkpt lat="44.38826322555542" lon="11.185305118560791">
        <ele>522</ele>
        <time>2004-03-14T08:34:25Z</time>
      </trkpt>
      <trkpt lat="44.388091564178467" lon="11.184961795806885">
        <ele>524</ele>
        <time>2004-03-14T08:34:38Z</time>
      </trkpt>
      <trkpt lat="44.388155937194824" lon="11.184704303741455">
        <ele>524</ele>
        <time>2004-03-14T08:34:48Z</time>
      </trkpt>
      <trkpt lat="44.38852071762085" lon="11.184017658233643">
        <ele>525</ele>
        <time>2004-03-14T08:35:08Z</time>
      </trkpt>
      <trkpt lat="44.38849925994873" lon="11.183416759595275">
        <ele>526</ele>
        <time>2004-03-14T08:35:23Z</time>
      </trkpt>
      <trkpt lat="44.388413429260254" lon="11.183180809020996">
        <ele>528</ele>
        <time>2004-03-14T08:35:31Z</time>
      </trkpt>
      <trkpt lat="44.388155937194824" lon="11.182923316955566">
        <ele>531</ele>
        <time>2004-03-14T08:35:44Z</time>
      </trkpt>
      <trkpt lat="44.387941360473633" lon="11.182665824890137">
        <ele>534</ele>
        <time>2004-03-14T08:35:56Z</time>
      </trkpt>
      <trkpt lat="44.387812614440918" lon="11.182472705841064">
        <ele>538</ele>
        <time>2004-03-14T08:36:08Z</time>
      </trkpt>
      <trkpt lat="44.387791240587831" lon="11.182472705841064">
        <ele>538</ele>
        <time>2004-03-14T08:36:09Z</time>
      </trkpt>
      <trkpt lat="44.38776969909668" lon="11.182408332824707">
        <ele>539</ele>
        <time>2004-03-14T08:36:14Z</time>
      </trkpt>
      <trkpt lat="44.38776969909668" lon="11.182279586791992">
        <ele>540</ele>
        <time>2004-03-14T08:36:20Z</time>
      </trkpt>
      <trkpt lat="44.387791240587831" lon="11.182065010070801">
        <ele>542</ele>
        <time>2004-03-14T08:36:29Z</time>
      </trkpt>
      <trkpt lat="44.38776969909668" lon="11.181421279907227">
        <ele>544</ele>
        <time>2004-03-14T08:36:55Z</time>
      </trkpt>
      <trkpt lat="44.387490665540099" lon="11.180992126464844">
        <ele>546</ele>
        <time>2004-03-14T08:37:15Z</time>
      </trkpt>
      <trkpt lat="44.387276172637939" lon="11.180691719055176">
        <ele>549</ele>
        <time>2004-03-14T08:37:29Z</time>
      </trkpt>
      <trkpt lat="44.387168884277344" lon="11.180262565612793">
        <ele>549</ele>
        <time>2004-03-14T08:37:44Z</time>
      </trkpt>
      <trkpt lat="44.387083137407899" lon="11.17957592010498">
        <ele>546</ele>
        <time>2004-03-14T08:37:56Z</time>
      </trkpt>
      <trkpt lat="44.38701868057251" lon="11.178524494171143">
        <ele>544</ele>
        <time>2004-03-14T08:38:10Z</time>
      </trkpt>
      <trkpt lat="44.386696815490723" lon="11.177687561139464">
        <ele>545</ele>
        <time>2004-03-14T08:38:27Z</time>
      </trkpt>
      <trkpt lat="44.386332035064697" lon="11.176958084106445">
        <ele>547</ele>
        <time>2004-03-14T08:38:48Z</time>
      </trkpt>
      <trkpt lat="44.385881423950195" lon="11.176378726959229">
        <ele>548</ele>
        <time>2004-03-14T08:39:08Z</time>
      </trkpt>
      <trkpt lat="44.385602474212646" lon="11.176056861877441">
        <ele>551</ele>
        <time>2004-03-14T08:39:26Z</time>
      </trkpt>
      <trkpt lat="44.385473728179932" lon="11.175906658172607">
        <ele>553</ele>
        <time>2004-03-14T08:39:38Z</time>
      </trkpt>
      <trkpt lat="44.385366439819336" lon="11.175756538286805">
        <ele>556</ele>
        <time>2004-03-14T08:39:48Z</time>
      </trkpt>
      <trkpt lat="44.385194778442383" lon="11.175498962402344">
        <ele>560</ele>
        <time>2004-03-14T08:40:05Z</time>
      </trkpt>
      <trkpt lat="44.385173320770264" lon="11.175498962402344">
        <ele>560</ele>
        <time>2004-03-14T08:40:06Z</time>
      </trkpt>
      <trkpt lat="44.38502311706543" lon="11.17530575953424">
        <ele>563</ele>
        <time>2004-03-14T08:40:21Z</time>
      </trkpt>
      <trkpt lat="44.384937286376953" lon="11.175220012664795">
        <ele>566</ele>
        <time>2004-03-14T08:40:30Z</time>
      </trkpt>
      <trkpt lat="44.384872913360596" lon="11.175155639648438">
        <ele>568</ele>
        <time>2004-03-14T08:40:36Z</time>
      </trkpt>
      <trkpt lat="44.384701335802674" lon="11.175069808959961">
        <ele>570</ele>
        <time>2004-03-14T08:40:52Z</time>
      </trkpt>
      <trkpt lat="44.38450813293457" lon="11.175069808959961">
        <ele>574</ele>
        <time>2004-03-14T08:41:05Z</time>
      </trkpt>
      <trkpt lat="44.384315013885498" lon="11.175112724304199">
        <ele>577</ele>
        <time>2004-03-14T08:41:19Z</time>
      </trkpt>
      <trkpt lat="44.384100437164307" lon="11.175177097320557">
        <ele>579</ele>
        <time>2004-03-14T08:41:34Z</time>
      </trkpt>
      <trkpt lat="44.384057521820068" lon="11.17534875869751">
        <ele>583</ele>
        <time>2004-03-14T08:41:46Z</time>
      </trkpt>
      <trkpt lat="44.384078979492188" lon="11.175477504730225">
        <ele>586</ele>
        <time>2004-03-14T08:41:54Z</time>
      </trkpt>
      <trkpt lat="44.384143436327577" lon="11.175627708435059">
        <ele>588</ele>
        <time>2004-03-14T08:42:03Z</time>
      </trkpt>
      <trkpt lat="44.384293640032411" lon="11.176013862714171">
        <ele>592</ele>
        <time>2004-03-14T08:42:23Z</time>
      </trkpt>
      <trkpt lat="44.384357929229736" lon="11.176142692565918">
        <ele>594</ele>
        <time>2004-03-14T08:42:29Z</time>
      </trkpt>
      <trkpt lat="44.384379386901855" lon="11.176164234057069">
        <ele>595</ele>
        <time>2004-03-14T08:42:31Z</time>
      </trkpt>
      <trkpt lat="44.384293640032411" lon="11.176207065582275">
        <ele>596</ele>
        <time>2004-03-14T08:42:35Z</time>
      </trkpt>
      <trkpt lat="44.384036064147949" lon="11.176056861877441">
        <ele>600</ele>
        <time>2004-03-14T08:42:49Z</time>
      </trkpt>
      <trkpt lat="44.383842861279845" lon="11.175885200500488">
        <ele>603</ele>
        <time>2004-03-14T08:43:02Z</time>
      </trkpt>
      <trkpt lat="44.383585536852479" lon="11.17584228515625">
        <ele>606</ele>
        <time>2004-03-14T08:43:15Z</time>
      </trkpt>
      <trkpt lat="44.383370876312256" lon="11.17584228515625">
        <ele>610</ele>
        <time>2004-03-14T08:43:28Z</time>
      </trkpt>
      <trkpt lat="44.383370876312256" lon="11.17584228515625">
        <ele>610</ele>
        <time>2004-03-14T08:43:29Z</time>
      </trkpt>
      <trkpt lat="44.383070468902588" lon="11.175799369812012">
        <ele>613</ele>
        <time>2004-03-14T08:43:48Z</time>
      </trkpt>
      <trkpt lat="44.382963180541992" lon="11.175777912139893">
        <ele>616</ele>
        <time>2004-03-14T08:43:57Z</time>
      </trkpt>
      <trkpt lat="44.382748603820801" lon="11.175713539123535">
        <ele>619</ele>
        <time>2004-03-14T08:44:11Z</time>
      </trkpt>
      <trkpt lat="44.382619941607118" lon="11.175670623779297">
        <ele>623</ele>
        <time>2004-03-14T08:44:20Z</time>
      </trkpt>
      <trkpt lat="44.382383823394775" lon="11.175627708435059">
        <ele>626</ele>
        <time>2004-03-14T08:44:35Z</time>
      </trkpt>
      <trkpt lat="44.382169162854552" lon="11.175649166107178">
        <ele>628</ele>
        <time>2004-03-14T08:44:51Z</time>
      </trkpt>
      <trkpt lat="44.381911838427186" lon="11.175670623779297">
        <ele>631</ele>
        <time>2004-03-14T08:45:10Z</time>
      </trkpt>
      <trkpt lat="44.381697177886963" lon="11.175520420074463">
        <ele>632</ele>
        <time>2004-03-14T08:45:27Z</time>
      </trkpt>
      <trkpt lat="44.381482601165771" lon="11.17530575953424">
        <ele>633</ele>
        <time>2004-03-14T08:45:43Z</time>
      </trkpt>
      <trkpt lat="44.381074905395508" lon="11.174983978271484">
        <ele>634</ele>
        <time>2004-03-14T08:46:07Z</time>
      </trkpt>
      <trkpt lat="44.380796039476991" lon="11.174876689910889">
        <ele>634</ele>
        <time>2004-03-14T08:46:25Z</time>
      </trkpt>
      <trkpt lat="44.380688667297363" lon="11.174812316894531">
        <ele>635</ele>
        <time>2004-03-14T08:46:40Z</time>
      </trkpt>
      <trkpt lat="44.380323886871338" lon="11.174876689910889">
        <ele>633</ele>
        <time>2004-03-14T08:56:45Z</time>
      </trkpt>
      <trkpt lat="44.379937564954162" lon="11.174983978271484">
        <ele>630</ele>
        <time>2004-03-14T08:56:54Z</time>
      </trkpt>
      <trkpt lat="44.379744529724121" lon="11.175112724304199">
        <ele>630</ele>
        <time>2004-03-14T08:57:00Z</time>
      </trkpt>
      <trkpt lat="44.379658699035645" lon="11.175155639648438">
        <ele>632</ele>
        <time>2003-09-28T08:21:42Z</time>
      </trkpt>
      <trkpt lat="44.379937564954162" lon="11.176249980926514">
        <ele>634</ele>
        <time>2003-09-28T08:21:23Z</time>
      </trkpt>
      <trkpt lat="44.379959106445313" lon="11.17633581161499">
        <ele>634</ele>
        <time>2003-09-28T08:21:17Z</time>
      </trkpt>
      <trkpt lat="44.379980564117432" lon="11.176528930664063">
        <ele>635</ele>
        <time>2003-09-28T08:21:15Z</time>
      </trkpt>
      <trkpt lat="44.38002347946167" lon="11.176743507385254">
        <ele>638</ele>
        <time>2003-09-28T08:21:12Z</time>
      </trkpt>
      <trkpt lat="44.380044937133789" lon="11.176915168762207">
        <ele>642</ele>
        <time>2003-09-28T08:21:09Z</time>
      </trkpt>
      <trkpt lat="44.379980564117432" lon="11.177494525909424">
        <ele>646</ele>
        <time>2003-09-28T08:21:02Z</time>
      </trkpt>
      <trkpt lat="44.379808902740479" lon="11.177923679351807">
        <ele>649</ele>
        <time>2003-09-28T08:20:53Z</time>
      </trkpt>
      <trkpt lat="44.379830360412598" lon="11.178224086761475">
        <ele>652</ele>
        <time>2003-09-28T08:20:48Z</time>
      </trkpt>
      <trkpt lat="44.379830360412598" lon="11.178245460614562">
        <ele>652</ele>
        <time>2003-09-28T08:20:44Z</time>
      </trkpt>
      <trkpt lat="44.379873275756836" lon="11.178996562957764">
        <ele>654</ele>
        <time>2003-09-28T08:20:39Z</time>
      </trkpt>
      <trkpt lat="44.379916191101074" lon="11.179254138842225">
        <ele>656</ele>
        <time>2003-09-28T08:20:36Z</time>
      </trkpt>
      <trkpt lat="44.380044937133789" lon="11.179769039154053">
        <ele>657</ele>
        <time>2003-09-28T08:20:20Z</time>
      </trkpt>
      <trkpt lat="44.380109310150146" lon="11.180026531219482">
        <ele>654</ele>
        <time>2003-09-28T08:20:08Z</time>
      </trkpt>
      <trkpt lat="44.380173683166504" lon="11.180391311645508">
        <ele>652</ele>
        <time>2003-09-28T08:19:48Z</time>
      </trkpt>
      <trkpt lat="44.380345260724425" lon="11.180713176727295">
        <ele>649</ele>
        <time>2003-09-28T08:19:32Z</time>
      </trkpt>
      <trkpt lat="44.380409717559814" lon="11.180884838104248">
        <ele>647</ele>
        <time>2003-09-28T08:19:25Z</time>
      </trkpt>
      <trkpt lat="44.380624294281006" lon="11.181335365399718">
        <ele>644</ele>
        <time>2003-09-28T08:19:08Z</time>
      </trkpt>
      <trkpt lat="44.380710124969482" lon="11.181700229644775">
        <ele>641</ele>
        <time>2003-09-28T08:18:57Z</time>
      </trkpt>
      <trkpt lat="44.38077449798584" lon="11.182258129119873">
        <ele>639</ele>
        <time>2003-09-28T08:18:41Z</time>
      </trkpt>
      <trkpt lat="44.380388259887695" lon="11.182665824890137">
        <ele>637</ele>
        <time>2003-09-28T08:18:23Z</time>
      </trkpt>
      <trkpt lat="44.380087936297059" lon="11.183416759595275">
        <ele>635</ele>
        <time>2003-09-28T08:18:06Z</time>
      </trkpt>
      <trkpt lat="44.379959106445313" lon="11.183910369873047">
        <ele>637</ele>
        <time>2003-09-28T08:17:56Z</time>
      </trkpt>
      <trkpt lat="44.379916191101074" lon="11.184060573577881">
        <ele>637</ele>
        <time>2003-09-28T08:17:52Z</time>
      </trkpt>
      <trkpt lat="44.379916191101074" lon="11.184210777282715">
        <ele>636</ele>
        <time>2003-09-28T08:17:49Z</time>
      </trkpt>
      <trkpt lat="44.379744529724121" lon="11.185111999511719">
        <ele>636</ele>
        <time>2003-09-28T08:17:34Z</time>
      </trkpt>
      <trkpt lat="44.379787361249328" lon="11.1857985612005">
        <ele>636</ele>
        <time>2003-09-28T08:17:23Z</time>
      </trkpt>
      <trkpt lat="44.379744529724121" lon="11.186485290527344">
        <ele>635</ele>
        <time>2003-09-28T08:17:09Z</time>
      </trkpt>
      <trkpt lat="44.379680240526795" lon="11.187300682067871">
        <ele>635</ele>
        <time>2003-09-28T08:16:53Z</time>
      </trkpt>
      <trkpt lat="44.379594326019287" lon="11.187558174133301">
        <ele>635</ele>
        <time>2003-09-28T08:16:37Z</time>
      </trkpt>
      <trkpt lat="44.379530036821961" lon="11.187644004821777">
        <ele>637</ele>
        <time>2004-12-08T09:56:05Z</time>
      </trkpt>
      <trkpt lat="44.379444122314453" lon="11.187665462493896">
        <ele>635</ele>
        <time>2004-03-14T09:06:00Z</time>
      </trkpt>
      <trkpt lat="44.379336833953857" lon="11.187686920166016">
        <ele>637</ele>
        <time>2004-03-14T09:06:15Z</time>
      </trkpt>
      <trkpt lat="44.37922946177423" lon="11.187729835510254">
        <ele>640</ele>
        <time>2004-03-14T09:06:30Z</time>
      </trkpt>
      <trkpt lat="44.379208087921143" lon="11.187729835510254">
        <ele>640</ele>
        <time>2004-03-14T09:06:32Z</time>
      </trkpt>
      <trkpt lat="44.379100799560547" lon="11.187751293182373">
        <ele>640</ele>
        <time>2004-03-14T09:06:42Z</time>
      </trkpt>
      <trkpt lat="44.378907680511475" lon="11.187794208526611">
        <ele>640</ele>
        <time>2004-03-14T09:07:01Z</time>
      </trkpt>
      <trkpt lat="44.378757476806641" lon="11.187923038378358">
        <ele>642</ele>
        <time>2004-03-14T09:07:19Z</time>
      </trkpt>
      <trkpt lat="44.378628730773926" lon="11.188008785247803">
        <ele>644</ele>
        <time>2004-03-14T09:07:39Z</time>
      </trkpt>
      <trkpt lat="44.378542900085449" lon="11.18807315826416">
        <ele>645</ele>
        <time>2004-03-14T09:07:50Z</time>
      </trkpt>
      <trkpt lat="44.378435611724854" lon="11.188201904296875">
        <ele>646</ele>
        <time>2004-03-14T09:08:10Z</time>
      </trkpt>
      <trkpt lat="44.378371238708496" lon="11.188309192657471">
        <ele>646</ele>
        <time>2004-03-14T09:08:25Z</time>
      </trkpt>
      <trkpt lat="44.378306865692139" lon="11.188545227050781">
        <ele>645</ele>
        <time>2004-03-14T09:08:44Z</time>
      </trkpt>
      <trkpt lat="44.378264034166932" lon="11.188738262280822">
        <ele>645</ele>
        <time>2004-03-14T09:09:04Z</time>
      </trkpt>
      <trkpt lat="44.378242492675781" lon="11.188845634460449">
        <ele>644</ele>
        <time>2004-03-14T09:09:22Z</time>
      </trkpt>
      <trkpt lat="44.378242492675781" lon="11.188974380493164">
        <ele>643</ele>
        <time>2004-03-14T09:09:35Z</time>
      </trkpt>
      <trkpt lat="44.378199577331543" lon="11.189167499542236">
        <ele>641</ele>
        <time>2004-03-14T09:09:56Z</time>
      </trkpt>
      <trkpt lat="44.378092288970947" lon="11.189446365460753">
        <ele>638</ele>
        <time>2004-03-14T09:10:23Z</time>
      </trkpt>
      <trkpt lat="44.378070831298828" lon="11.189725399017334">
        <ele>636</ele>
        <time>2004-03-14T09:10:43Z</time>
      </trkpt>
      <trkpt lat="44.37802791595459" lon="11.189982891082764">
        <ele>635</ele>
        <time>2004-03-14T09:11:01Z</time>
      </trkpt>
      <trkpt lat="44.377899169921875" lon="11.190218925476074">
        <ele>635</ele>
        <time>2004-03-14T09:11:20Z</time>
      </trkpt>
      <trkpt lat="44.377856338396668" lon="11.190304839983582">
        <ele>635</ele>
        <time>2004-03-14T09:11:32Z</time>
      </trkpt>
      <trkpt lat="44.377813339233398" lon="11.190433502197266">
        <ele>631</ele>
        <time>2004-03-14T09:11:37Z</time>
      </trkpt>
      <trkpt lat="44.37777042388916" lon="11.190519332885742">
        <ele>627</ele>
        <time>2004-03-14T09:11:40Z</time>
      </trkpt>
      <trkpt lat="44.377727508544922" lon="11.190562164410949">
        <ele>624</ele>
        <time>2004-03-14T09:11:42Z</time>
      </trkpt>
      <trkpt lat="44.377727508544922" lon="11.190605163574219">
        <ele>624</ele>
        <time>2004-03-14T09:11:51Z</time>
      </trkpt>
      <trkpt lat="44.377727508544922" lon="11.1905837059021">
        <ele>623</ele>
        <time>2004-03-14T09:12:23Z</time>
      </trkpt>
      <trkpt lat="44.377727508544922" lon="11.190626621246338">
        <ele>624</ele>
        <time>2004-03-14T09:15:56Z</time>
      </trkpt>
      <trkpt lat="44.377706134691834" lon="11.190605163574219">
        <ele>623</ele>
        <time>2004-03-14T09:16:13Z</time>
      </trkpt>
      <trkpt lat="44.377706134691834" lon="11.190605163574219">
        <ele>623</ele>
        <time>2004-03-14T09:16:16Z</time>
      </trkpt>
      <trkpt lat="44.377641677856445" lon="11.190648078918457">
        <ele>621</ele>
        <time>2004-03-14T09:16:20Z</time>
      </trkpt>
      <trkpt lat="44.377555763348937" lon="11.190690994262695">
        <ele>615</ele>
        <time>2004-03-14T09:16:24Z</time>
      </trkpt>
      <trkpt lat="44.37753438949585" lon="11.190712535753846">
        <ele>613</ele>
        <time>2004-03-14T09:16:26Z</time>
      </trkpt>
      <trkpt lat="44.37751293182373" lon="11.190712535753846">
        <ele>613</ele>
        <time>2004-03-14T09:16:27Z</time>
      </trkpt>
      <trkpt lat="44.377405559644103" lon="11.190605163574219">
        <ele>611</ele>
        <time>2004-03-14T09:16:39Z</time>
      </trkpt>
      <trkpt lat="44.377384185791016" lon="11.190626621246338">
        <ele>609</ele>
        <time>2004-03-14T09:16:43Z</time>
      </trkpt>
      <trkpt lat="44.377362728118896" lon="11.190648078918457">
        <ele>607</ele>
        <time>2004-03-14T09:16:47Z</time>
      </trkpt>
      <trkpt lat="44.377341270446777" lon="11.190648078918457">
        <ele>607</ele>
        <time>2004-03-14T09:16:49Z</time>
      </trkpt>
      <trkpt lat="44.377319812774658" lon="11.190690994262695">
        <ele>605</ele>
        <time>2004-03-14T09:17:02Z</time>
      </trkpt>
      <trkpt lat="44.377233982086182" lon="11.190690994262695">
        <ele>605</ele>
        <time>2004-03-14T09:17:21Z</time>
      </trkpt>
      <trkpt lat="44.377148235216737" lon="11.190712535753846">
        <ele>603</ele>
        <time>2004-03-14T09:17:35Z</time>
      </trkpt>
      <trkpt lat="44.377126693725586" lon="11.190755367279053">
        <ele>602</ele>
        <time>2004-03-14T09:17:45Z</time>
      </trkpt>
      <trkpt lat="44.377040863037109" lon="11.190884113311768">
        <ele>600</ele>
        <time>2004-03-14T09:17:48Z</time>
      </trkpt>
      <trkpt lat="44.377040863037109" lon="11.190927028656006">
        <ele>599</ele>
        <time>2004-03-14T09:17:50Z</time>
      </trkpt>
      <trkpt lat="44.376997863873839" lon="11.190991401672363">
        <ele>596</ele>
        <time>2004-03-14T09:18:01Z</time>
      </trkpt>
      <trkpt lat="44.376933574676514" lon="11.191227436065674">
        <ele>593</ele>
        <time>2004-03-14T09:18:16Z</time>
      </trkpt>
      <trkpt lat="44.376869201660156" lon="11.191677963361144">
        <ele>593</ele>
        <time>2004-03-14T09:18:47Z</time>
      </trkpt>
      <trkpt lat="44.376890659332275" lon="11.191914081573486">
        <ele>593</ele>
        <time>2004-03-14T09:19:12Z</time>
      </trkpt>
      <trkpt lat="44.376955032348633" lon="11.19206428527832">
        <ele>594</ele>
        <time>2004-03-14T09:19:36Z</time>
      </trkpt>
      <trkpt lat="44.377040863037109" lon="11.19232177734375">
        <ele>594</ele>
        <time>2004-03-14T09:19:55Z</time>
      </trkpt>
      <trkpt lat="44.377040863037109" lon="11.192364692687988">
        <ele>594</ele>
        <time>2004-03-14T09:19:59Z</time>
      </trkpt>
      <trkpt lat="44.377062320709229" lon="11.192493438720703">
        <ele>594</ele>
        <time>2004-03-14T09:20:08Z</time>
      </trkpt>
      <trkpt lat="44.37701940536499" lon="11.192708015441895">
        <ele>591</ele>
        <time>2004-03-14T09:20:29Z</time>
      </trkpt>
      <trkpt lat="44.376697540283203" lon="11.19257926940918">
        <ele>590</ele>
        <time>2004-03-14T09:24:21Z</time>
      </trkpt>
      <trkpt lat="44.376633167266846" lon="11.192557811737061">
        <ele>589</ele>
        <time>2004-03-14T09:24:23Z</time>
      </trkpt>
      <trkpt lat="44.376611709594727" lon="11.19257926940918">
        <ele>588</ele>
        <time>2004-03-14T09:24:26Z</time>
      </trkpt>
      <trkpt lat="44.376611709594727" lon="11.192600727081299">
        <ele>588</ele>
        <time>2004-03-14T09:24:30Z</time>
      </trkpt>
      <trkpt lat="44.376697540283203" lon="11.192729473114014">
        <ele>584</ele>
        <time>2004-03-14T09:24:42Z</time>
      </trkpt>
      <trkpt lat="44.376697540283203" lon="11.192750930786133">
        <ele>584</ele>
        <time>2004-03-14T09:24:43Z</time>
      </trkpt>
      <trkpt lat="44.376761913299561" lon="11.192836761474609">
        <ele>582</ele>
        <time>2004-03-14T09:24:48Z</time>
      </trkpt>
      <trkpt lat="44.376826286315918" lon="11.192922592163086">
        <ele>580</ele>
        <time>2004-03-14T09:24:52Z</time>
      </trkpt>
      <trkpt lat="44.376826286315918" lon="11.192943966016173">
        <ele>580</ele>
        <time>2004-03-14T09:24:53Z</time>
      </trkpt>
      <trkpt lat="44.376933574676514" lon="11.193029880523682">
        <ele>578</ele>
        <time>2004-03-14T09:25:00Z</time>
      </trkpt>
      <trkpt lat="44.376869201660156" lon="11.193094337359071">
        <ele>575</ele>
        <time>2004-03-14T09:25:05Z</time>
      </trkpt>
      <trkpt lat="44.376718997955322" lon="11.19307279586792">
        <ele>571</ele>
        <time>2004-03-14T09:25:11Z</time>
      </trkpt>
      <trkpt lat="44.376611709594727" lon="11.19307279586792">
        <ele>568</ele>
        <time>2004-03-14T09:25:15Z</time>
      </trkpt>
      <trkpt lat="44.376590335741639" lon="11.193094337359071">
        <ele>568</ele>
        <time>2004-03-14T09:25:24Z</time>
      </trkpt>
      <trkpt lat="44.376547336578369" lon="11.193094337359071">
        <ele>564</ele>
        <time>2004-03-14T09:25:29Z</time>
      </trkpt>
      <trkpt lat="44.37652587890625" lon="11.193094337359071">
        <ele>564</ele>
        <time>2004-03-14T09:25:30Z</time>
      </trkpt>
      <trkpt lat="44.376439964398742" lon="11.193094337359071">
        <ele>561</ele>
        <time>2004-03-14T09:25:34Z</time>
      </trkpt>
      <trkpt lat="44.376311302185059" lon="11.193094337359071">
        <ele>558</ele>
        <time>2004-03-14T09:25:40Z</time>
      </trkpt>
      <trkpt lat="44.37626838684082" lon="11.193094337359071">
        <ele>554</ele>
        <time>2004-03-14T09:25:43Z</time>
      </trkpt>
      <trkpt lat="44.376225471496582" lon="11.193115711212158">
        <ele>553</ele>
        <time>2004-03-14T09:25:45Z</time>
      </trkpt>
      <trkpt lat="44.376161098480225" lon="11.193115711212158">
        <ele>552</ele>
        <time>2004-03-14T09:25:47Z</time>
      </trkpt>
      <trkpt lat="44.376096725463867" lon="11.193244541063905">
        <ele>551</ele>
        <time>2004-03-14T09:25:54Z</time>
      </trkpt>
      <trkpt lat="44.376161098480225" lon="11.193437576293945">
        <ele>549</ele>
        <time>2004-03-14T09:26:07Z</time>
      </trkpt>
      <trkpt lat="44.376182639971375" lon="11.193501865491271">
        <ele>548</ele>
        <time>2004-03-14T09:26:09Z</time>
      </trkpt>
      <trkpt lat="44.376118183135986" lon="11.19356632232666">
        <ele>544</ele>
        <time>2004-03-14T09:26:13Z</time>
      </trkpt>
      <trkpt lat="44.376118183135986" lon="11.193609237670898">
        <ele>544</ele>
        <time>2004-03-14T09:26:14Z</time>
      </trkpt>
      <trkpt lat="44.376010894775391" lon="11.193716526031494">
        <ele>540</ele>
        <time>2004-03-14T09:26:21Z</time>
      </trkpt>
      <trkpt lat="44.375882064923644" lon="11.19382381439209">
        <ele>536</ele>
        <time>2004-03-14T09:26:28Z</time>
      </trkpt>
      <trkpt lat="44.375860691070557" lon="11.193845272064209">
        <ele>536</ele>
        <time>2004-03-14T09:26:29Z</time>
      </trkpt>
      <trkpt lat="44.375796318054199" lon="11.193909561261535">
        <ele>534</ele>
        <time>2004-03-14T09:26:33Z</time>
      </trkpt>
      <trkpt lat="44.37573186121881" lon="11.193974018096924">
        <ele>533</ele>
        <time>2004-03-14T09:26:36Z</time>
      </trkpt>
      <trkpt lat="44.375689029693604" lon="11.194038391113281">
        <ele>531</ele>
        <time>2004-03-14T09:26:39Z</time>
      </trkpt>
      <trkpt lat="44.375581741333008" lon="11.194167137145996">
        <ele>527</ele>
        <time>2004-03-14T09:26:45Z</time>
      </trkpt>
      <trkpt lat="44.375410079956055" lon="11.194231510162354">
        <ele>525</ele>
        <time>2004-03-14T09:26:52Z</time>
      </trkpt>
      <trkpt lat="44.375367164611816" lon="11.194231510162354">
        <ele>524</ele>
        <time>2004-03-14T09:26:54Z</time>
      </trkpt>
      <trkpt lat="44.375302791595459" lon="11.194188594818115">
        <ele>522</ele>
        <time>2004-03-14T09:27:05Z</time>
      </trkpt>
      <trkpt lat="44.375195503234863" lon="11.194167137145996">
        <ele>521</ele>
        <time>2004-03-14T09:45:09Z</time>
      </trkpt>
      <trkpt lat="44.375195503234863" lon="11.194210136309266">
        <ele>520</ele>
        <time>2004-03-14T09:45:19Z</time>
      </trkpt>
      <trkpt lat="44.375173961743712" lon="11.19431734085083">
        <ele>518</ele>
        <time>2004-03-14T09:45:28Z</time>
      </trkpt>
      <trkpt lat="44.375195503234863" lon="11.1943603400141">
        <ele>518</ele>
        <time>2004-03-14T09:45:38Z</time>
      </trkpt>
      <trkpt lat="44.375173961743712" lon="11.194381713867188">
        <ele>515</ele>
        <time>2004-03-14T09:45:42Z</time>
      </trkpt>
      <trkpt lat="44.375216960906982" lon="11.194489002227783">
        <ele>513</ele>
        <time>2004-03-14T09:45:56Z</time>
      </trkpt>
      <trkpt lat="44.375302791595459" lon="11.194660663604736">
        <ele>510</ele>
        <time>2004-03-14T09:46:08Z</time>
      </trkpt>
      <trkpt lat="44.375410079956055" lon="11.194768035784364">
        <ele>507</ele>
        <time>2004-03-14T09:46:15Z</time>
      </trkpt>
      <trkpt lat="44.37553882598877" lon="11.194875240325928">
        <ele>503</ele>
        <time>2004-03-14T09:46:23Z</time>
      </trkpt>
      <trkpt lat="44.37553882598877" lon="11.194875240325928">
        <ele>503</ele>
        <time>2004-03-14T09:46:24Z</time>
      </trkpt>
      <trkpt lat="44.375624740496278" lon="11.194896697998047">
        <ele>500</ele>
        <time>2004-03-14T09:46:29Z</time>
      </trkpt>
      <trkpt lat="44.375624740496278" lon="11.194896697998047">
        <ele>500</ele>
        <time>2004-03-14T09:46:30Z</time>
      </trkpt>
      <trkpt lat="44.375753402709961" lon="11.194853782653809">
        <ele>497</ele>
        <time>2004-03-14T09:46:43Z</time>
      </trkpt>
      <trkpt lat="44.375946521759033" lon="11.195003986358643">
        <ele>493</ele>
        <time>2004-03-14T09:46:56Z</time>
      </trkpt>
      <trkpt lat="44.376010894775391" lon="11.195111274719238">
        <ele>493</ele>
        <time>2004-03-14T09:47:02Z</time>
      </trkpt>
      <trkpt lat="44.375925064086914" lon="11.195068359375">
        <ele>492</ele>
        <time>2004-03-14T09:47:07Z</time>
      </trkpt>
      <trkpt lat="44.375817775726318" lon="11.194961071014404">
        <ele>489</ele>
        <time>2004-03-14T09:47:12Z</time>
      </trkpt>
      <trkpt lat="44.375689029693604" lon="11.195068359375">
        <ele>487</ele>
        <time>2004-03-14T09:47:16Z</time>
      </trkpt>
      <trkpt lat="44.375603199005127" lon="11.195132732391357">
        <ele>485</ele>
        <time>2004-03-14T09:47:21Z</time>
      </trkpt>
      <trkpt lat="44.375452995300293" lon="11.195197105407715">
        <ele>481</ele>
        <time>2004-03-14T09:47:27Z</time>
      </trkpt>
      <trkpt lat="44.375259876251221" lon="11.195240020751953">
        <ele>477</ele>
        <time>2004-03-14T09:47:32Z</time>
      </trkpt>
      <trkpt lat="44.374959468841553" lon="11.195282936096191">
        <ele>475</ele>
        <time>2004-03-14T09:47:39Z</time>
      </trkpt>
      <trkpt lat="44.374938011169434" lon="11.195282936096191">
        <ele>475</ele>
        <time>2004-03-14T09:47:41Z</time>
      </trkpt>
      <trkpt lat="44.374573230743408" lon="11.195411682128906">
        <ele>472</ele>
        <time>2004-03-14T09:47:55Z</time>
      </trkpt>
      <trkpt lat="44.374487400054932" lon="11.195497512817383">
        <ele>471</ele>
        <time>2004-03-14T09:47:59Z</time>
      </trkpt>
      <trkpt lat="44.374294281005859" lon="11.195755004882813">
        <ele>467</ele>
        <time>2004-03-14T09:48:11Z</time>
      </trkpt>
      <trkpt lat="44.37427282333374" lon="11.195797920227051">
        <ele>467</ele>
        <time>2004-03-14T09:48:27Z</time>
      </trkpt>
      <trkpt lat="44.374208534136415" lon="11.195862293243408">
        <ele>467</ele>
        <time>2004-03-14T09:48:39Z</time>
      </trkpt>
      <trkpt lat="44.374208534136415" lon="11.195840835571289">
        <ele>467</ele>
        <time>2004-03-14T09:49:32Z</time>
      </trkpt>
      <trkpt lat="44.374165534973145" lon="11.195948123931885">
        <ele>467</ele>
        <time>2004-03-14T09:49:41Z</time>
      </trkpt>
      <trkpt lat="44.374101161956787" lon="11.196184158325195">
        <ele>463</ele>
        <time>2004-03-14T09:49:45Z</time>
      </trkpt>
      <trkpt lat="44.374058162793517" lon="11.196506023406982">
        <ele>457</ele>
        <time>2004-03-14T09:49:49Z</time>
      </trkpt>
      <trkpt lat="44.373929500579834" lon="11.196763515472412">
        <ele>454</ele>
        <time>2004-03-14T09:49:53Z</time>
      </trkpt>
      <trkpt lat="44.373800838366151" lon="11.196999466046691">
        <ele>450</ele>
        <time>2004-03-14T09:49:56Z</time>
      </trkpt>
      <trkpt lat="44.373714923858643" lon="11.197106838226318">
        <ele>445</ele>
        <time>2004-03-14T09:49:58Z</time>
      </trkpt>
      <trkpt lat="44.373693466186523" lon="11.197171211242676">
        <ele>441</ele>
        <time>2004-03-14T09:50:00Z</time>
      </trkpt>
      <trkpt lat="44.373672008514404" lon="11.197256958112121">
        <ele>439</ele>
        <time>2004-03-14T09:50:05Z</time>
      </trkpt>
      <trkpt lat="44.373393058776855" lon="11.197364330291748">
        <ele>436</ele>
        <time>2004-03-14T09:50:12Z</time>
      </trkpt>
      <trkpt lat="44.373178482055664" lon="11.197450160980225">
        <ele>431</ele>
        <time>2004-03-14T09:50:15Z</time>
      </trkpt>
      <trkpt lat="44.373114109039307" lon="11.197471618652344">
        <ele>430</ele>
        <time>2004-03-14T09:50:16Z</time>
      </trkpt>
      <trkpt lat="44.37302827835083" lon="11.197600364685059">
        <ele>424</ele>
        <time>2004-03-14T09:50:19Z</time>
      </trkpt>
      <trkpt lat="44.37302827835083" lon="11.197643280029297">
        <ele>423</ele>
        <time>2004-03-14T09:50:20Z</time>
      </trkpt>
      <trkpt lat="44.373006820678711" lon="11.197922229766846">
        <ele>417</ele>
        <time>2004-03-14T09:50:24Z</time>
      </trkpt>
      <trkpt lat="44.373006820678711" lon="11.198050975799561">
        <ele>415</ele>
        <time>2004-03-14T09:50:27Z</time>
      </trkpt>
      <trkpt lat="44.373006820678711" lon="11.198136806488037">
        <ele>413</ele>
        <time>2004-03-14T09:50:31Z</time>
      </trkpt>
      <trkpt lat="44.373006820678711" lon="11.198244094848633">
        <ele>411</ele>
        <time>2004-03-14T09:50:38Z</time>
      </trkpt>
      <trkpt lat="44.372985363006592" lon="11.198265636339784">
        <ele>410</ele>
        <time>2004-03-14T09:50:39Z</time>
      </trkpt>
      <trkpt lat="44.372856616973877" lon="11.198372840881348">
        <ele>408</ele>
        <time>2004-03-14T09:50:43Z</time>
      </trkpt>
      <trkpt lat="44.372685039415956" lon="11.19852296076715">
        <ele>404</ele>
        <time>2004-03-14T09:50:47Z</time>
      </trkpt>
      <trkpt lat="44.372663497924805" lon="11.198544502258301">
        <ele>404</ele>
        <time>2004-03-14T09:50:48Z</time>
      </trkpt>
      <trkpt lat="44.372663497924805" lon="11.198587417602539">
        <ele>403</ele>
        <time>2004-03-14T09:50:51Z</time>
      </trkpt>
      <trkpt lat="44.372663497924805" lon="11.19856595993042">
        <ele>402</ele>
        <time>2004-03-14T09:51:03Z</time>
      </trkpt>
      <trkpt lat="44.372663497924805" lon="11.198587417602539">
        <ele>402</ele>
        <time>2004-03-14T09:51:05Z</time>
      </trkpt>
      <trkpt lat="44.372577667236328" lon="11.198716163635254">
        <ele>402</ele>
        <time>2004-03-14T09:51:11Z</time>
      </trkpt>
      <trkpt lat="44.372534835711122" lon="11.198844909667969">
        <ele>401</ele>
        <time>2004-03-14T09:51:13Z</time>
      </trkpt>
      <trkpt lat="44.372470378875732" lon="11.199016571044922">
        <ele>397</ele>
        <time>2004-03-14T09:51:16Z</time>
      </trkpt>
      <trkpt lat="44.372384464368224" lon="11.199188232421875">
        <ele>394</ele>
        <time>2004-03-14T09:51:19Z</time>
      </trkpt>
      <trkpt lat="44.372363090515137" lon="11.199252605438232">
        <ele>393</ele>
        <time>2004-03-14T09:51:20Z</time>
      </trkpt>
      <trkpt lat="44.372320175170898" lon="11.19957447052002">
        <ele>387</ele>
        <time>2004-03-14T09:51:24Z</time>
      </trkpt>
      <trkpt lat="44.372320175170898" lon="11.199874877929688">
        <ele>382</ele>
        <time>2004-03-14T09:51:29Z</time>
      </trkpt>
      <trkpt lat="44.372320175170898" lon="11.199917793273926">
        <ele>382</ele>
        <time>2004-03-14T09:51:30Z</time>
      </trkpt>
      <trkpt lat="44.372320175170898" lon="11.199960708618164">
        <ele>382</ele>
        <time>2004-03-14T09:51:31Z</time>
      </trkpt>
      <trkpt lat="44.372320175170898" lon="11.200196659192443">
        <ele>380</ele>
        <time>2004-03-14T09:51:35Z</time>
      </trkpt>
      <trkpt lat="44.37201976776123" lon="11.200754558667541">
        <ele>386</ele>
        <time>2003-01-19T10:35:48Z</time>
      </trkpt>
      <trkpt lat="44.37201976776123" lon="11.201248168945313">
        <ele>385</ele>
        <time>2003-01-19T10:35:59Z</time>
      </trkpt>
      <trkpt lat="44.371976936236024" lon="11.201848983764648">
        <ele>386</ele>
        <time>2003-01-19T10:36:13Z</time>
      </trkpt>
      <trkpt lat="44.371891021728516" lon="11.202342510223389">
        <ele>389</ele>
        <time>2003-01-19T10:36:28Z</time>
      </trkpt>
      <trkpt lat="44.371762275695801" lon="11.202836036682129">
        <ele>390</ele>
        <time>2003-01-19T10:36:43Z</time>
      </trkpt>
      <trkpt lat="44.371697902679443" lon="11.203715801239014">
        <ele>388</ele>
        <time>2003-01-19T10:36:59Z</time>
      </trkpt>
      <trkpt lat="44.371740818023682" lon="11.204016208648682">
        <ele>386</ele>
        <time>2003-01-19T10:37:03Z</time>
      </trkpt>
      <trkpt lat="44.371740818023682" lon="11.204123497009277">
        <ele>385</ele>
        <time>2003-01-19T10:37:04Z</time>
      </trkpt>
      <trkpt lat="44.371740818023682" lon="11.20429515838623">
        <ele>384</ele>
        <time>2003-01-19T10:37:06Z</time>
      </trkpt>
      <trkpt lat="44.37178373336792" lon="11.204574108123779">
        <ele>379</ele>
        <time>2003-01-19T10:37:09Z</time>
      </trkpt>
      <trkpt lat="44.371826564893126" lon="11.204659938812256">
        <ele>376</ele>
        <time>2003-01-19T10:37:10Z</time>
      </trkpt>
      <trkpt lat="44.371869564056396" lon="11.204810058698058">
        <ele>372</ele>
        <time>2003-01-19T10:37:12Z</time>
      </trkpt>
      <trkpt lat="44.371912479400635" lon="11.205196380615234">
        <ele>368</ele>
        <time>2003-01-19T10:37:17Z</time>
      </trkpt>
      <trkpt lat="44.371869564056396" lon="11.205389499664307">
        <ele>364</ele>
        <time>2003-01-19T10:37:20Z</time>
      </trkpt>
      <trkpt lat="44.371805191040039" lon="11.205582618713379">
        <ele>361</ele>
        <time>2003-01-19T10:37:23Z</time>
      </trkpt>
      <trkpt lat="44.371762275695801" lon="11.206011772155762">
        <ele>357</ele>
        <time>2003-01-19T10:37:28Z</time>
      </trkpt>
      <trkpt lat="44.371676361188293" lon="11.206247806549072">
        <ele>352</ele>
        <time>2003-01-19T10:37:31Z</time>
      </trkpt>
      <trkpt lat="44.371590614318848" lon="11.206483840942383">
        <ele>350</ele>
        <time>2003-01-19T10:37:34Z</time>
      </trkpt>
      <trkpt lat="44.371504783630371" lon="11.206698417663574">
        <ele>348</ele>
        <time>2003-01-19T10:37:37Z</time>
      </trkpt>
      <trkpt lat="44.371483325958252" lon="11.206784164533019">
        <ele>345</ele>
        <time>2003-01-19T10:37:38Z</time>
      </trkpt>
      <trkpt lat="44.371333122253418" lon="11.207149028778076">
        <ele>342</ele>
        <time>2003-01-19T10:37:43Z</time>
      </trkpt>
      <trkpt lat="44.37129020690918" lon="11.207320690155029">
        <ele>340</ele>
        <time>2003-01-19T10:37:45Z</time>
      </trkpt>
      <trkpt lat="44.371204376220703" lon="11.20755672454834">
        <ele>338</ele>
        <time>2003-01-19T10:37:48Z</time>
      </trkpt>
      <trkpt lat="44.371075630187988" lon="11.207664012908936">
        <ele>333</ele>
        <time>2003-01-19T10:37:51Z</time>
      </trkpt>
      <trkpt lat="44.370989799499512" lon="11.207706928253174">
        <ele>331</ele>
        <time>2003-01-19T10:37:53Z</time>
      </trkpt>
      <trkpt lat="44.370946884155273" lon="11.207985877990723">
        <ele>326</ele>
        <time>2003-01-19T10:37:57Z</time>
      </trkpt>
      <trkpt lat="44.370818138122559" lon="11.208200538530946">
        <ele>321</ele>
        <time>2003-01-19T10:38:01Z</time>
      </trkpt>
      <trkpt lat="44.370689392089844" lon="11.208200538530946">
        <ele>317</ele>
        <time>2003-01-19T10:38:04Z</time>
      </trkpt>
      <trkpt lat="44.370496273040771" lon="11.208157539367676">
        <ele>314</ele>
        <time>2003-01-19T10:38:07Z</time>
      </trkpt>
      <trkpt lat="44.370324611663818" lon="11.207899963483214">
        <ele>309</ele>
        <time>2003-01-19T10:38:11Z</time>
      </trkpt>
      <trkpt lat="44.37028169631958" lon="11.207835674285889">
        <ele>307</ele>
        <time>2003-01-19T10:38:12Z</time>
      </trkpt>
      <trkpt lat="44.370217323303223" lon="11.207685470581055">
        <ele>303</ele>
        <time>2003-01-19T10:38:14Z</time>
      </trkpt>
      <trkpt lat="44.370195865631104" lon="11.207513809204102">
        <ele>301</ele>
        <time>2003-01-19T10:38:16Z</time>
      </trkpt>
      <trkpt lat="44.370002662763" lon="11.207277774810791">
        <ele>295</ele>
        <time>2003-01-19T10:38:20Z</time>
      </trkpt>
      <trkpt lat="44.369895458221436" lon="11.207170486450195">
        <ele>290</ele>
        <time>2003-01-19T10:38:22Z</time>
      </trkpt>
      <trkpt lat="44.369831085205078" lon="11.207127571105957">
        <ele>289</ele>
        <time>2003-01-19T10:38:23Z</time>
      </trkpt>
      <trkpt lat="44.369680881500244" lon="11.206977367401123">
        <ele>282</ele>
        <time>2003-01-19T10:38:26Z</time>
      </trkpt>
      <trkpt lat="44.369595134630799" lon="11.206848621368408">
        <ele>279</ele>
        <time>2003-01-19T10:38:28Z</time>
      </trkpt>
      <trkpt lat="44.36953067779541" lon="11.206762790679932">
        <ele>276</ele>
        <time>2003-01-19T10:38:30Z</time>
      </trkpt>
      <trkpt lat="44.369487762451172" lon="11.206741333007813">
        <ele>275</ele>
        <time>2003-01-19T10:38:31Z</time>
      </trkpt>
      <trkpt lat="44.369423389434814" lon="11.206784164533019">
        <ele>272</ele>
        <time>2003-01-19T10:38:39Z</time>
      </trkpt>
      <trkpt lat="44.369401931762695" lon="11.206762790679932">
        <ele>272</ele>
        <time>2003-01-19T10:39:08Z</time>
      </trkpt>
      <trkpt lat="44.369380474090576" lon="11.206827163696289">
        <ele>272</ele>
        <time>2003-01-19T10:44:16Z</time>
      </trkpt>
      <trkpt lat="44.369316101074219" lon="11.207256317138672">
        <ele>271</ele>
        <time>2003-01-19T10:44:26Z</time>
      </trkpt>
      <trkpt lat="44.369316101074219" lon="11.207320690155029">
        <ele>270</ele>
        <time>2003-01-19T10:44:27Z</time>
      </trkpt>
      <trkpt lat="44.369337558746338" lon="11.207535266876221">
        <ele>269</ele>
        <time>2003-01-19T10:44:30Z</time>
      </trkpt>
      <trkpt lat="44.36927318572998" lon="11.20781421661377">
        <ele>267</ele>
        <time>2003-01-19T10:44:34Z</time>
      </trkpt>
      <trkpt lat="44.369165897369385" lon="11.208071708679199">
        <ele>262</ele>
        <time>2003-01-19T10:44:38Z</time>
      </trkpt>
      <trkpt lat="44.369144439697266" lon="11.208114624023438">
        <ele>262</ele>
        <time>2003-01-19T10:44:39Z</time>
      </trkpt>
      <trkpt lat="44.369144439697266" lon="11.208243370056152">
        <ele>261</ele>
        <time>2003-01-19T10:44:41Z</time>
      </trkpt>
      <trkpt lat="44.36927318572998" lon="11.208393573760986">
        <ele>259</ele>
        <time>2003-01-19T10:44:44Z</time>
      </trkpt>
      <trkpt lat="44.369444763287902" lon="11.20854377746582">
        <ele>256</ele>
        <time>2003-01-19T10:44:47Z</time>
      </trkpt>
      <trkpt lat="44.369595134630799" lon="11.208736896514893">
        <ele>254</ele>
        <time>2003-01-19T10:44:50Z</time>
      </trkpt>
      <trkpt lat="44.36978816986084" lon="11.209187507629395">
        <ele>249</ele>
        <time>2003-01-19T10:44:55Z</time>
      </trkpt>
      <trkpt lat="44.369852459058166" lon="11.209337711334229">
        <ele>246</ele>
        <time>2003-01-19T10:44:57Z</time>
      </trkpt>
      <trkpt lat="44.369852459058166" lon="11.209380626678467">
        <ele>245</ele>
        <time>2003-01-19T10:44:58Z</time>
      </trkpt>
      <trkpt lat="44.36978816986084" lon="11.209573661908507">
        <ele>242</ele>
        <time>2003-01-19T10:45:03Z</time>
      </trkpt>
      <trkpt lat="44.369616508483887" lon="11.209681034088135">
        <ele>237</ele>
        <time>2003-01-19T10:45:07Z</time>
      </trkpt>
      <trkpt lat="44.369423389434814" lon="11.20980978012085">
        <ele>233</ele>
        <time>2003-01-19T10:45:10Z</time>
      </trkpt>
      <trkpt lat="44.369380474090576" lon="11.209852695465088">
        <ele>230</ele>
        <time>2003-01-19T10:45:11Z</time>
      </trkpt>
      <trkpt lat="44.369294559583068" lon="11.209959983825684">
        <ele>228</ele>
        <time>2003-01-19T10:45:13Z</time>
      </trkpt>
      <trkpt lat="44.369230270385742" lon="11.210110187530518">
        <ele>225</ele>
        <time>2003-01-19T10:45:16Z</time>
      </trkpt>
      <trkpt lat="44.369187438860536" lon="11.210281765088439">
        <ele>221</ele>
        <time>2003-01-19T10:45:19Z</time>
      </trkpt>
      <trkpt lat="44.369101524353027" lon="11.210517883300781">
        <ele>216</ele>
        <time>2003-01-19T10:45:23Z</time>
      </trkpt>
      <trkpt lat="44.369080066680908" lon="11.21058234013617">
        <ele>215</ele>
        <time>2003-01-19T10:45:24Z</time>
      </trkpt>
      <trkpt lat="44.368972778320313" lon="11.210753917694092">
        <ele>211</ele>
        <time>2003-01-19T10:45:27Z</time>
      </trkpt>
      <trkpt lat="44.368865489959717" lon="11.21079683303833">
        <ele>209</ele>
        <time>2003-01-19T10:45:30Z</time>
      </trkpt>
      <trkpt lat="44.368607997894287" lon="11.210818290710449">
        <ele>204</ele>
        <time>2003-01-19T10:45:35Z</time>
      </trkpt>
      <trkpt lat="44.368479335680604" lon="11.210818290710449">
        <ele>202</ele>
        <time>2003-01-19T10:45:39Z</time>
      </trkpt>
      <trkpt lat="44.368393421173096" lon="11.210839664563537">
        <ele>201</ele>
        <time>2003-01-19T10:45:42Z</time>
      </trkpt>
      <trkpt lat="44.368414878845215" lon="11.210925579071045">
        <ele>199</ele>
        <time>2003-01-19T10:45:47Z</time>
      </trkpt>
      <trkpt lat="44.368801116943359" lon="11.211419105529785">
        <ele>196</ele>
        <time>2003-01-19T10:45:58Z</time>
      </trkpt>
      <trkpt lat="44.369380474090576" lon="11.212127208709717">
        <ele>193</ele>
        <time>2003-01-19T10:46:10Z</time>
      </trkpt>
      <trkpt lat="44.369723796844482" lon="11.21251336298883">
        <ele>194</ele>
        <time>2003-01-19T10:46:23Z</time>
      </trkpt>
      <trkpt lat="44.37002420425415" lon="11.213028430938721">
        <ele>193</ele>
        <time>2003-01-19T10:46:38Z</time>
      </trkpt>
      <trkpt lat="44.370110034942627" lon="11.213135719299316">
        <ele>192</ele>
        <time>2003-01-19T10:47:01Z</time>
      </trkpt>
      <trkpt lat="44.369981288909912" lon="11.213221466168761">
        <ele>189</ele>
        <time>2003-01-19T10:47:07Z</time>
      </trkpt>
      <trkpt lat="44.370002662763" lon="11.21328592300415">
        <ele>187</ele>
        <time>2003-01-19T10:47:10Z</time>
      </trkpt>
      <trkpt lat="44.370002662763" lon="11.21330738067627">
        <ele>186</ele>
        <time>2003-01-19T10:47:11Z</time>
      </trkpt>
      <trkpt lat="44.37004566192627" lon="11.213457584381104">
        <ele>183</ele>
        <time>2003-01-19T10:47:16Z</time>
      </trkpt>
      <trkpt lat="44.37004566192627" lon="11.213586330413818">
        <ele>180</ele>
        <time>2003-01-19T10:47:22Z</time>
      </trkpt>
      <trkpt lat="44.37004566192627" lon="11.213650703430176">
        <ele>178</ele>
        <time>2003-01-19T10:47:26Z</time>
      </trkpt>
      <trkpt lat="44.37004566192627" lon="11.213693618774414">
        <ele>177</ele>
        <time>2003-01-19T10:47:30Z</time>
      </trkpt>
      <trkpt lat="44.37004566192627" lon="11.213736534118652">
        <ele>174</ele>
        <time>2003-01-19T10:47:35Z</time>
      </trkpt>
      <trkpt lat="44.370002662763" lon="11.213757991790771">
        <ele>172</ele>
        <time>2003-01-19T10:47:43Z</time>
      </trkpt>
      <trkpt lat="44.369895458221436" lon="11.213886737823486">
        <ele>171</ele>
        <time>2003-01-19T10:47:49Z</time>
      </trkpt>
      <trkpt lat="44.369959831237793" lon="11.21403694152832">
        <ele>168</ele>
        <time>2003-01-19T10:47:52Z</time>
      </trkpt>
      <trkpt lat="44.37002420425415" lon="11.214208602905273">
        <ele>165</ele>
        <time>2003-01-19T10:47:55Z</time>
      </trkpt>
      <trkpt lat="44.37004566192627" lon="11.214251518249512">
        <ele>165</ele>
        <time>2003-01-19T10:47:56Z</time>
      </trkpt>
      <trkpt lat="44.370303237810731" lon="11.214852333068848">
        <ele>163</ele>
        <time>2003-01-19T10:48:13Z</time>
      </trkpt>
      <trkpt lat="44.370303237810731" lon="11.214852333068848">
        <ele>164</ele>
        <time>2003-01-19T10:48:26Z</time>
      </trkpt>
      <trkpt lat="44.370303237810731" lon="11.214873790740967">
        <ele>164</ele>
        <time>2003-01-19T10:49:36Z</time>
      </trkpt>
      <trkpt lat="44.37028169631958" lon="11.215260028839111">
        <ele>160</ele>
        <time>2003-01-19T10:49:42Z</time>
      </trkpt>
      <trkpt lat="44.37028169631958" lon="11.215410232543945">
        <ele>158</ele>
        <time>2003-01-19T10:49:44Z</time>
      </trkpt>
      <trkpt lat="44.370324611663818" lon="11.215753639116883">
        <ele>153</ele>
        <time>2003-01-19T10:49:48Z</time>
      </trkpt>
      <trkpt lat="44.370388984680176" lon="11.21601096354425">
        <ele>149</ele>
        <time>2003-01-19T10:49:51Z</time>
      </trkpt>
      <trkpt lat="44.370410358533263" lon="11.216247081756592">
        <ele>144</ele>
        <time>2003-01-19T10:49:54Z</time>
      </trkpt>
      <trkpt lat="44.37004566192627" lon="11.216955184936523">
        <ele>141</ele>
        <time>2003-01-19T10:49:56Z</time>
      </trkpt>
      <trkpt lat="44.370303237810731" lon="11.217341423034668">
        <ele>126</ele>
        <time>2004-12-08T11:07:52Z</time>
      </trkpt>
      <trkpt lat="44.370410358533263" lon="11.217749118804932">
        <ele>126</ele>
        <time>2004-12-08T11:07:57Z</time>
      </trkpt>
      <trkpt lat="44.370603561401367" lon="11.219229698181152">
        <ele>122</ele>
        <time>2004-12-08T11:08:11Z</time>
      </trkpt>
      <trkpt lat="44.371075630187988" lon="11.220581531524658">
        <ele>119</ele>
        <time>2004-12-08T11:08:23Z</time>
      </trkpt>
      <trkpt lat="44.371976936236024" lon="11.221954822540283">
        <ele>119</ele>
        <time>2004-12-08T11:08:40Z</time>
      </trkpt>
      <trkpt lat="44.373006820678711" lon="11.223113536834717">
        <ele>120</ele>
        <time>2004-12-08T11:08:57Z</time>
      </trkpt>
      <trkpt lat="44.373800838366151" lon="11.224014759063721">
        <ele>121</ele>
        <time>2004-12-08T11:09:10Z</time>
      </trkpt>
      <trkpt lat="44.374616062268615" lon="11.225109100341797">
        <ele>121</ele>
        <time>2004-12-08T11:09:27Z</time>
      </trkpt>
      <trkpt lat="44.375581741333008" lon="11.226139068603516">
        <ele>121</ele>
        <time>2004-12-08T11:09:46Z</time>
      </trkpt>
      <trkpt lat="44.376397132873535" lon="11.227576732635498">
        <ele>123</ele>
        <time>2004-12-08T11:10:06Z</time>
      </trkpt>
      <trkpt lat="44.377105236053467" lon="11.229314804077148">
        <ele>122</ele>
        <time>2004-12-08T11:10:27Z</time>
      </trkpt>
      <trkpt lat="44.377920627593994" lon="11.230409061536193">
        <ele>122</ele>
        <time>2004-12-08T11:10:44Z</time>
      </trkpt>
      <trkpt lat="44.379186630249023" lon="11.231567859649658">
        <ele>123</ele>
        <time>2004-12-08T11:11:07Z</time>
      </trkpt>
      <trkpt lat="44.379937564954162" lon="11.232190132141113">
        <ele>124</ele>
        <time>2004-12-08T11:11:21Z</time>
      </trkpt>
      <trkpt lat="44.380903160199523" lon="11.233241641893983">
        <ele>125</ele>
        <time>2004-12-08T11:11:42Z</time>
      </trkpt>
      <trkpt lat="44.381847381591797" lon="11.234228610992432">
        <ele>124</ele>
        <time>2004-12-08T11:12:00Z</time>
      </trkpt>
      <trkpt lat="44.38326358795166" lon="11.235666275024414">
        <ele>124</ele>
        <time>2004-12-08T11:12:26Z</time>
      </trkpt>
      <trkpt lat="44.384379386901855" lon="11.236352920532227">
        <ele>125</ele>
        <time>2004-12-08T11:12:46Z</time>
      </trkpt>
      <trkpt lat="44.385538101196289" lon="11.237339973449707">
        <ele>125</ele>
        <time>2004-12-08T11:13:07Z</time>
      </trkpt>
      <trkpt lat="44.386417865753174" lon="11.238670265302062">
        <ele>123</ele>
        <time>2004-12-08T11:13:26Z</time>
      </trkpt>
      <trkpt lat="44.387276172637939" lon="11.240365505218506">
        <ele>123</ele>
        <time>2004-12-08T11:13:47Z</time>
      </trkpt>
      <trkpt lat="44.387490665540099" lon="11.241695880889893">
        <ele>125</ele>
        <time>2004-12-08T11:14:02Z</time>
      </trkpt>
      <trkpt lat="44.387555122375488" lon="11.242468440905213">
        <ele>127</ele>
        <time>2004-12-08T11:14:13Z</time>
      </trkpt>
      <trkpt lat="44.387662410736084" lon="11.24276876449585">
        <ele>127</ele>
        <time>2004-12-08T11:14:18Z</time>
      </trkpt>
      <trkpt lat="44.388477802276611" lon="11.243798732757568">
        <ele>126</ele>
        <time>2004-12-08T11:14:36Z</time>
      </trkpt>
      <trkpt lat="44.389078617095947" lon="11.2445068359375">
        <ele>127</ele>
        <time>2004-12-08T11:14:48Z</time>
      </trkpt>
      <trkpt lat="44.389443397521973" lon="11.245021820068359">
        <ele>125</ele>
        <time>2004-12-08T11:14:55Z</time>
      </trkpt>
      <trkpt lat="44.390237331390381" lon="11.245450973510742">
        <ele>123</ele>
        <time>2004-12-08T11:15:06Z</time>
      </trkpt>
      <trkpt lat="44.390559196472168" lon="11.245622634887695">
        <ele>123</ele>
        <time>2004-12-08T11:15:11Z</time>
      </trkpt>
      <trkpt lat="44.390666484832764" lon="11.245901584625244">
        <ele>123</ele>
        <time>2004-12-08T11:15:15Z</time>
      </trkpt>
      <trkpt lat="44.39100980758667" lon="11.24624490737915">
        <ele>122</ele>
        <time>2004-12-08T11:15:23Z</time>
      </trkpt>
      <trkpt lat="44.391074180603027" lon="11.246201992034912">
        <ele>122</ele>
        <time>2004-12-08T11:15:24Z</time>
      </trkpt>
      <trkpt lat="44.39128884114325" lon="11.246073162183166">
        <ele>122</ele>
        <time>2004-12-08T11:15:28Z</time>
      </trkpt>
      <trkpt lat="44.391610622406006" lon="11.246073162183166">
        <ele>123</ele>
        <time>2004-12-08T11:15:33Z</time>
      </trkpt>
      <trkpt lat="44.392619132995605" lon="11.24650239944458">
        <ele>124</ele>
        <time>2004-12-08T11:15:50Z</time>
      </trkpt>
      <trkpt lat="44.39274787902832" lon="11.246523940935731">
        <ele>124</ele>
        <time>2004-12-08T11:15:52Z</time>
      </trkpt>
      <trkpt lat="44.392876625061035" lon="11.246523940935731">
        <ele>124</ele>
        <time>2004-12-08T11:15:54Z</time>
      </trkpt>
      <trkpt lat="44.393692016601563" lon="11.246910095214844">
        <ele>124</ele>
        <time>2004-12-08T11:16:12Z</time>
      </trkpt>
      <trkpt lat="44.393734931945801" lon="11.246910095214844">
        <ele>123</ele>
        <time>2004-12-08T11:16:13Z</time>
      </trkpt>
      <trkpt lat="44.393799304962158" lon="11.246738433837891">
        <ele>123</ele>
        <time>2004-12-08T11:16:18Z</time>
      </trkpt>
      <trkpt lat="44.393906593322754" lon="11.246180534362793">
        <ele>124</ele>
        <time>2004-12-08T11:16:30Z</time>
      </trkpt>
    </trkseg>
  </trk>

</gpx>
